U28221 / G-EZWC 7700 Squawk Report (12th of December, 2019)

Aircraft A320 Reg No. G-EZWC Age 7 years old
Model A320 Jet engines 2 First flight 11-07-12
Registered 31-07-12 Rollout 07-12 Delivered 31-07-12
Construction No. 5236 Line No. N/A Series 214
ADSHEX 406754 Airline name easyJet Owner N/A
Airfield based Luton~Beds~G First tracked 2017-07-13 06:46:00

Flight history for G-EZWC

Route Flight No Date Playback
Glasgow (GLA) - Luton (LTN) U262 2020-01-08 20:07:00
Alicante (ALC) - Gatwick (LGW) U28662 2020-01-08 13:05:00
Gatwick (LGW) - Alicante (ALC) U28661 2020-01-08 09:32:00
Sevilla (SVQ) - Gatwick (LGW) U28176 2020-01-07 21:41:00
Gatwick (LGW) - Sevilla (SVQ) U28175 2020-01-07 12:58:00
Innsbruck (INN) - Gatwick (LGW) U28296 2020-01-06 17:02:00
Gatwick (LGW) - Innsbruck (INN) U28295 2020-01-06 14:57:00
Tegel (TXL) - Gatwick (LGW) U28122 2020-01-06 11:44:00
Gatwick (LGW) - Tegel (TXL) U28121 2020-01-06 09:08:00
Son Sant Joan (PMI) - Gatwick (LGW) U28630 2020-01-06 03:07:00
Gatwick (LGW) - Son Sant Joan (PMI) U28629 2020-01-05 21:05:00
Tenerife Sur (TFS) - Gatwick (LGW) U28704 2020-01-05 18:09:00
Gatwick (LGW) - Tenerife Sur (TFS) U28703 2020-01-05 13:09:00
Bari (BRI) - Gatwick (LGW) U28366 2020-01-05 08:54:00
???? N/A 2020-01-04 19:46:00
Gatwick (LGW) - Bari (BRI) U28365 2020-01-04 18:42:00
Granada (GRX) - Gatwick (LGW) U28172 2020-01-04 14:26:00
Gatwick (LGW) - Granada (GRX) U28171 2020-01-04 12:02:00
Zurich (ZRH) - Gatwick (LGW) U28118 2020-01-03 21:31:00
Gatwick (LGW) - Zurich (ZRH) U28117 2020-01-03 18:16:00
Time Lat Lon Altitude Heading Speed Vertical Rate
2019-12-12 12:41:47 GMT 39.479599 -0.456112 350 296 130 -768
2019-12-12 12:41:36 GMT 39.476765 -0.448608 475 297 128 -640
2019-12-12 12:41:21 GMT 39.472713 -0.438049 650 297 129 -768
2019-12-12 12:41:17 GMT 39.472870 -0.438438 650 297 129 -768
2019-12-12 12:41:05 GMT 39.468712 -0.427551 850 296 128 -640
2019-12-12 12:40:49 GMT 39.464401 -0.416346 1,025 297 128 -704
2019-12-12 12:40:46 GMT 39.464706 -0.417114 1,000 297 128 -704
2019-12-12 12:40:36 GMT 39.460876 -0.407032 1,175 297 129 -640
2019-12-12 12:40:25 GMT 39.459354 -0.403015 1,250 297 129 -640
2019-12-12 12:40:20 GMT 39.456841 -0.396362 1,375 297 129 -704
2019-12-12 12:40:16 GMT 39.456711 -0.396045 1,375 297 129 -704
2019-12-12 12:40:06 GMT 39.452682 -0.385417 1,550 296 130 -704
2019-12-12 12:39:55 GMT 39.450943 -0.380820 1,625 297 130 -704
2019-12-12 12:39:50 GMT 39.448746 -0.375207 1,725 297 130 -576
2019-12-12 12:39:44 GMT 39.448460 -0.374451 1,725 297 130 -576
2019-12-12 12:39:35 GMT 39.444717 -0.364639 1,875 297 131 -768
2019-12-12 12:39:25 GMT 39.443207 -0.360638 1,950 297 131 -832
2019-12-12 12:39:20 GMT 39.440643 -0.353951 2,100 297 129 -704
2019-12-12 12:39:14 GMT 39.440277 -0.352995 2,100 297 129 -768
2019-12-12 12:39:04 GMT 39.437531 -0.345890 2,200 297 131 -768
2019-12-12 12:38:54 GMT 39.435005 -0.339233 2,325 296 134 -704
2019-12-12 12:38:49 GMT 39.432259 -0.332092 2,425 297 132 -256
2019-12-12 12:38:44 GMT 39.432167 -0.331848 2,425 296 132 -256
2019-12-12 12:38:34 GMT 39.428467 -0.322067 2,450 297 128 -320
2019-12-12 12:38:24 GMT 39.426861 -0.317871 2,475 297 127 -320
2019-12-12 12:38:20 GMT 39.424438 -0.311558 2,525 297 126 -192
2019-12-12 12:38:09 GMT 39.423157 -0.308393 2,550 297 126 -256
2019-12-12 12:38:02 GMT 39.421188 -0.303258 2,600 297 132 -384
2019-12-12 12:37:49 GMT 39.416058 -0.290100 2,700 297 142 -512
2019-12-12 12:37:32 GMT 39.411171 -0.277039 2,825 296 151 -448
2019-12-12 12:37:19 GMT 39.406982 -0.265930 2,925 297 151 -448
2019-12-12 12:37:03 GMT 39.402237 -0.253581 3,050 298 150 -512
2019-12-12 12:36:49 GMT 39.397293 -0.241460 3,175 299 150 -448
2019-12-12 12:36:33 GMT 39.391899 -0.229614 3,300 303 153 -448
2019-12-12 12:36:10 GMT 39.381134 -0.213159 3,475 338 164 -448
2019-12-12 12:36:03 GMT 39.376190 -0.210770 3,500 341 166 -192
2019-12-12 12:35:48 GMT 39.367905 -0.202292 3,475 288 157 -192
2019-12-12 12:35:33 GMT 39.369644 -0.187783 3,575 233 187 -640
2019-12-12 12:35:17 GMT 39.382030 -0.178467 3,800 189 223 -960
2019-12-12 12:35:03 GMT 39.398209 -0.179304 3,950 173 241 -448
2019-12-12 12:34:47 GMT 39.415283 -0.181812 4,075 173 250 -384
2019-12-12 12:34:32 GMT 39.433376 -0.184509 4,200 173 258 -384
2019-12-12 12:34:22 GMT 39.440689 -0.185633 4,200 173 265 -384
2019-12-12 12:34:16 GMT 39.452408 -0.187365 4,300 173 271 -640
2019-12-12 12:34:05 GMT 39.460464 -0.188619 4,375 173 273 -768
2019-12-12 12:33:59 GMT 39.469391 -0.189992 4,475 173 283 -896
2019-12-12 12:33:46 GMT 39.490913 -0.193298 4,700 173 293 -896
2019-12-12 12:33:38 GMT 39.496948 -0.194231 4,775 173 297 -1152
2019-12-12 12:33:30 GMT 39.509209 -0.196045 5,100 173 299 -1600
2019-12-12 12:33:16 GMT 39.533230 -0.199646 5,500 173 297 -1728
2019-12-12 12:33:00 GMT 39.553856 -0.202637 5,925 173 295 -2112
2019-12-12 12:32:46 GMT 39.574104 -0.205566 6,450 173 296 -1664
2019-12-12 12:32:30 GMT 39.595596 -0.208681 6,850 173 297 -1472
2019-12-12 12:32:15 GMT 39.615536 -0.211548 7,250 173 297 -1792
2019-12-12 12:32:01 GMT 39.636017 -0.214532 7,725 173 295 -2048
2019-12-12 12:31:45 GMT 39.656780 -0.217590 8,200 173 295 -1472
2019-12-12 12:31:25 GMT 39.677628 -0.220682 8,500 173 296 -960
2019-12-12 12:31:15 GMT 39.697952 -0.223727 8,725 173 296 -960
2019-12-12 12:30:59 GMT 39.718918 -0.226832 8,950 173 298 -1024
2019-12-12 12:30:44 GMT 39.740574 -0.230042 9,250 173 299 -1024
2019-12-12 12:30:29 GMT 39.760712 -0.232982 9,500 173 297 -960
2019-12-12 12:30:15 GMT 39.781677 -0.236027 9,750 173 296 -1088
2019-12-12 12:29:59 GMT 39.802139 -0.239072 10,175 173 295 -2176
2019-12-12 12:29:44 GMT 39.822556 -0.242177 10,600 173 297 -1216
2019-12-12 12:29:28 GMT 39.844154 -0.245483 10,850 173 305 -960
2019-12-12 12:29:13 GMT 39.865448 -0.248625 11,225 173 308 -1792
2019-12-12 12:28:58 GMT 39.886826 -0.251730 11,650 173 309 -1664
2019-12-12 12:28:44 GMT 39.908211 -0.254761 12,150 173 307 -1792
2019-12-12 12:28:28 GMT 39.929993 -0.257935 12,475 173 309 -1024
2019-12-12 12:28:12 GMT 39.951874 -0.261230 12,850 173 312 -1408
2019-12-12 12:27:58 GMT 39.973389 -0.264404 13,200 173 316 -1600
2019-12-12 12:27:42 GMT 39.995819 -0.267883 13,700 173 314 -1728
2019-12-12 12:27:27 GMT 40.017654 -0.271350 14,000 172 318 -512
2019-12-12 12:27:12 GMT 40.040497 -0.275085 14,175 172 325 -1088
2019-12-12 12:27:03 GMT 40.045212 -0.275844 14,225 172 326 -1024
2019-12-12 12:26:56 GMT 40.055923 -0.277649 14,350 172 328 -896
2019-12-12 12:26:42 GMT 40.085293 -0.282274 14,650 173 332 -704
2019-12-12 12:26:26 GMT 40.113602 -0.283691 14,900 185 329 -1152
2019-12-12 12:26:09 GMT 40.133801 -0.275158 15,300 206 313 -1664
2019-12-12 12:26:01 GMT 40.137341 -0.272910 15,350 207 313 -896
2019-12-12 12:25:53 GMT 40.147816 -0.265982 15,450 207 315 -448
2019-12-12 12:25:42 GMT 40.170254 -0.251250 15,650 207 318 -768
2019-12-12 12:25:31 GMT 40.176636 -0.247009 15,725 207 319 -896
2019-12-12 12:25:22 GMT 40.189957 -0.238220 15,875 207 319 -960
2019-12-12 12:25:11 GMT 40.209869 -0.225095 16,125 207 317 -1280
2019-12-12 12:25:01 GMT 40.217056 -0.220398 16,250 207 316 -1344
2019-12-12 12:24:50 GMT 40.230209 -0.211799 16,500 207 315 -1216
2019-12-12 12:24:40 GMT 40.243286 -0.203186 16,725 207 315 -1600
2019-12-12 12:24:31 GMT 40.256424 -0.194397 17,075 208 316 -2368
2019-12-12 12:24:24 GMT 40.270897 -0.185020 17,425 206 319 -1664
2019-12-12 12:24:18 GMT 40.272758 -0.183896 17,450 205 321 -1728
2019-12-12 12:24:08 GMT 40.287052 -0.175844 17,950 203 328 -1344
2019-12-12 12:23:59 GMT 40.298923 -0.169477 17,850 203 328 -1344
2019-12-12 12:23:49 GMT 40.312840 -0.162236 18,150 202 331 -1664
2019-12-12 12:23:46 GMT 40.317215 -0.160034 18,500 201 332 -1664
2019-12-12 12:23:41 GMT 40.326004 -0.156006 18,500 198 340 -1216
2019-12-12 12:23:36 GMT 40.332504 -0.153198 18,500 198 342 -1152
2019-12-12 12:23:27 GMT 40.345428 -0.147941 18,650 197 347 -1280
2019-12-12 12:23:21 GMT 40.356789 -0.143384 18,800 197 348 -1344
2019-12-12 12:23:17 GMT 40.360382 -0.141968 18,850 197 348 -1408
2019-12-12 12:23:07 GMT 40.376083 -0.135803 19,100 197 352 -1472
2019-12-12 12:22:57 GMT 40.393051 -0.129089 19,325 197 354 -1600
2019-12-12 12:22:49 GMT 40.404503 -0.124595 19,575 197 354 -1920
2019-12-12 12:22:46 GMT 40.409454 -0.122620 19,675 197 353 -1984
2019-12-12 12:22:40 GMT 40.419754 -0.118530 20,075 197 352 -2112
2019-12-12 12:22:36 GMT 40.425385 -0.116272 20,025 198 351 -2112
2019-12-12 12:22:24 GMT 40.451473 -0.105806 20,725 198 351 -2560
2019-12-12 12:22:15 GMT 40.457748 -0.103333 20,900 198 351 -2688
2019-12-12 12:22:09 GMT 40.467590 -0.099365 21,225 198 354 -2560
2019-12-12 12:22:03 GMT 40.476059 -0.095947 21,400 198 354 -2560
2019-12-12 12:21:54 GMT 40.499176 -0.086670 22,000 198 361 -1984
2019-12-12 12:21:43 GMT 40.508408 -0.082959 22,175 197 363 -1728
2019-12-12 12:21:35 GMT 40.522018 -0.077515 22,475 197 366 -1600
2019-12-12 12:21:32 GMT 40.526329 -0.075781 22,475 197 366 -1600
2019-12-12 12:21:27 GMT 40.534149 -0.072722 22,600 197 369 -1216
2019-12-12 12:21:23 GMT 40.540100 -0.070312 22,775 197 372 -1088
2019-12-12 12:21:19 GMT 40.549095 -0.066792 22,775 197 373 -1024
2019-12-12 12:21:12 GMT 40.558216 -0.063171 22,850 197 375 -960
2019-12-12 12:21:08 GMT 40.565460 -0.060303 22,925 197 379 -832
2019-12-12 12:21:02 GMT 40.575348 -0.056430 23,025 197 383 -768
2019-12-12 12:20:57 GMT 40.586243 -0.052185 23,100 197 387 -704
2019-12-12 12:20:50 GMT 40.595810 -0.048401 23,150 197 390 -704
2019-12-12 12:20:46 GMT 40.603745 -0.045319 23,200 197 394 -704
2019-12-12 12:20:40 GMT 40.613297 -0.041565 23,275 197 398 -704
2019-12-12 12:20:36 GMT 40.621307 -0.038452 23,325 197 402 -704
2019-12-12 12:20:30 GMT 40.632385 -0.034058 23,400 197 406 -768
2019-12-12 12:20:26 GMT 40.648483 -0.027716 23,575 197 417 -832
2019-12-12 12:20:21 GMT 40.648483 -0.027716 23,525 197 413 -832
2019-12-12 12:20:16 GMT 40.658073 -0.023970 23,600 197 418 -832
2019-12-12 12:20:09 GMT 40.669804 -0.019288 23,675 197 422 -1024
2019-12-12 12:20:05 GMT 40.678417 -0.015855 23,800 197 425 -1664
2019-12-12 12:20:00 GMT 40.687592 -0.012207 23,950 197 427 -1856
2019-12-12 12:19:55 GMT 40.698666 -0.007803 24,125 197 428 -2048
2019-12-12 12:19:49 GMT 40.708466 -0.003906 24,300 197 430 -1920
2019-12-12 12:19:45 GMT 40.716660 -0.000610 24,450 197 432 -2048
2019-12-12 12:19:38 GMT 40.736847 0.007446 24,875 197 436 -1856
2019-12-12 12:19:34 GMT 40.736847 0.007446 24,800 197 435 -1984
2019-12-12 12:19:28 GMT 40.755981 0.015076 25,075 197 438 -1728
2019-12-12 12:19:24 GMT 40.755981 0.015076 25,100 197 440 -1728
2019-12-12 12:19:18 GMT 40.775665 0.022909 25,350 197 446 -2240
2019-12-12 12:19:14 GMT 40.775665 0.022909 25,400 197 444 -1856
2019-12-12 12:19:08 GMT 40.787567 0.027649 25,600 197 446 -2240
2019-12-12 12:19:03 GMT 40.797123 0.031523 25,775 197 446 -2368
2019-12-12 12:18:57 GMT 40.809227 0.036330 26,275 198 447 -2304
2019-12-12 12:18:54 GMT 40.815445 0.038818 26,150 197 448 -2304
2019-12-12 12:18:46 GMT 40.830223 0.044757 26,425 197 449 -2112
2019-12-12 12:18:43 GMT 40.836319 0.047180 26,525 197 450 -1984
2019-12-12 12:18:36 GMT 40.850193 0.052809 27,100 198 453 -2432
2019-12-12 12:18:33 GMT 40.858013 0.055930 26,900 198 452 -2368
2019-12-12 12:18:26 GMT 40.871567 0.061401 27,175 198 454 -2368
2019-12-12 12:18:23 GMT 40.878685 0.064295 27,325 198 455 -2304
2019-12-12 12:18:19 GMT 40.887863 0.067993 27,500 198 456 -2304
2019-12-12 12:18:15 GMT 40.893723 0.070374 27,700 198 457 -2496
2019-12-12 12:18:12 GMT 40.898575 0.072327 27,700 198 457 -2560
2019-12-12 12:18:05 GMT 40.913086 0.078153 28,275 197 458 -2624
2019-12-12 12:18:02 GMT 40.918953 0.080462 28,150 197 458 -2624
2019-12-12 12:17:59 GMT 40.925949 0.083313 28,300 197 458 -2624
2019-12-12 12:17:55 GMT 40.939060 0.088515 29,275 197 464 -1600
2019-12-12 12:17:43 GMT 40.959366 0.096619 28,875 197 464 -1408
2019-12-12 12:17:33 GMT 40.981194 0.105244 29,175 197 469 -2176
2019-12-12 12:17:23 GMT 41.000603 0.112860 29,450 197 472 -1280
2019-12-12 12:17:20 GMT 41.007843 0.115723 29,525 197 482 -1664
2019-12-12 12:17:12 GMT 41.023727 0.122070 29,650 197 481 -1472
2019-12-12 12:17:08 GMT 41.031097 0.124969 29,750 197 487 -1728
2019-12-12 12:17:01 GMT 41.047302 0.131470 29,975 197 486 -1728
2019-12-12 12:16:58 GMT 41.052605 0.133584 30,050 198 490 -1920
2019-12-12 12:16:54 GMT 41.068726 0.140076 30,275 198 490 -1856
2019-12-12 12:16:46 GMT 41.078857 0.144196 30,400 198 495 -1408
2019-12-12 12:16:42 GMT 41.089920 0.148743 30,525 198 497 -1216
2019-12-12 12:16:39 GMT 41.095478 0.151062 30,550 197 500 -1152
2019-12-12 12:16:33 GMT 41.108837 0.156305 30,775 195 508 -1984
2019-12-12 12:16:29 GMT 41.118942 0.159851 30,725 195 508 -1920
2019-12-12 12:16:21 GMT 41.135281 0.164732 31,050 192 514 -3136
2019-12-12 12:16:16 GMT 41.145950 0.167358 31,375 190 516 -3200
2019-12-12 12:16:12 GMT 41.155838 0.169434 31,600 188 519 -3008
2019-12-12 12:16:08 GMT 41.165958 0.171349 31,825 188 519 -2944
2019-12-12 12:16:03 GMT 41.180481 0.173971 32,125 188 519 -2624
2019-12-12 12:15:58 GMT 41.209064 0.179090 32,375 188 519 -2240
2019-12-12 12:15:50 GMT 41.209064 0.179090 32,550 188 519 -1920
2019-12-12 12:15:47 GMT 41.233318 0.183397 32,675 188 520 -1024
2019-12-12 12:15:40 GMT 41.233318 0.183397 32,850 188 519 -1344
2019-12-12 12:15:37 GMT 41.239426 0.184448 32,900 188 520 -1024
2019-12-12 12:15:32 GMT 41.253021 0.186890 33,375 188 520 -1024
2019-12-12 12:15:29 GMT 41.259201 0.187927 33,050 188 520 -1024
2019-12-12 12:15:26 GMT 41.265533 0.189077 33,100 188 521 -960
2019-12-12 12:15:20 GMT 41.289322 0.193237 33,350 188 521 -832
2019-12-12 12:15:12 GMT 41.312073 0.197266 33,350 188 522 -832
2019-12-12 12:15:07 GMT 41.312073 0.197266 33,400 188 521 -832
2019-12-12 12:14:59 GMT 41.329868 0.200438 33,500 188 521 -896
2019-12-12 12:14:56 GMT 41.337269 0.201749 33,550 188 521 -896
2019-12-12 12:14:49 GMT 41.356064 0.205139 33,975 188 522 -1024
2019-12-12 12:14:46 GMT 41.361942 0.206181 33,700 188 524 -1024
2019-12-12 12:14:41 GMT 41.376560 0.208803 33,800 188 523 -1024
2019-12-12 12:14:36 GMT 41.387314 0.210720 33,875 188 523 -1024
2019-12-12 12:14:29 GMT 41.403187 0.213531 33,975 188 524 -1024
2019-12-12 12:14:26 GMT 41.409576 0.214670 34,025 188 524 -960
2019-12-12 12:14:21 GMT 41.423622 0.217108 34,125 188 525 -896
2019-12-12 12:14:18 GMT 41.429443 0.218130 34,150 188 525 -896
2019-12-12 12:14:15 GMT 41.435680 0.219216 34,200 188 526 -832
2019-12-12 12:14:08 GMT 41.453789 0.222345 34,300 188 526 -832
2019-12-12 12:14:05 GMT 41.460308 0.223431 34,350 188 526 -832
2019-12-12 12:13:59 GMT 41.477097 0.226343 34,450 188 526 -896
2019-12-12 12:13:55 GMT 41.485519 0.227779 34,500 188 526 -960
2019-12-12 12:13:48 GMT 41.502342 0.230713 34,575 188 527 -1024
2019-12-12 12:13:44 GMT 41.510651 0.232211 34,650 188 527 -1024
2019-12-12 12:13:38 GMT 41.526627 0.235020 34,750 188 527 -1024
2019-12-12 12:13:34 GMT 41.535721 0.236589 34,925 188 527 -768
2019-12-12 12:13:27 GMT 41.552620 0.239655 34,925 188 527 -768
2019-12-12 12:13:23 GMT 41.561604 0.241252 34,975 188 527 -640
2019-12-12 12:13:20 GMT 41.571625 0.243010 35,025 188 526 -256
2019-12-12 12:13:17 GMT 41.575699 0.243759 35,025 188 526 -256
2019-12-12 12:13:13 GMT 41.586548 0.245694 35,050 188 525 0
2019-12-12 12:13:08 GMT 41.600662 0.248214 35,050 188 525 0
2019-12-12 12:13:02 GMT 41.611359 0.250126 35,050 188 525 0
2019-12-12 12:12:57 GMT 41.624729 0.252494 35,050 188 525 0
2019-12-12 12:12:51 GMT 41.639053 0.255058 35,050 188 524 -64
2019-12-12 12:12:47 GMT 41.648800 0.256837 35,050 188 524 0
2019-12-12 12:12:40 GMT 41.666428 0.259989 35,050 188 523 0
2019-12-12 12:12:37 GMT 41.673515 0.261245 35,050 188 523 64
2019-12-12 12:12:29 GMT 41.693626 0.264885 35,025 188 523 192
2019-12-12 12:12:21 GMT 41.711288 0.268104 35,000 188 523 64
2019-12-12 12:12:16 GMT 41.722321 0.270101 35,000 188 523 64
2019-12-12 12:12:08 GMT 41.743423 0.273909 35,000 188 522 64
2019-12-12 12:11:58 GMT 41.772999 0.279257 34,975 188 522 64
2019-12-12 12:11:50 GMT 41.785892 0.281620 34,975 188 521 128
2019-12-12 12:11:45 GMT 41.796799 0.283522 34,975 188 521 128
2019-12-12 12:11:37 GMT 41.815781 0.286986 34,950 188 521 64
2019-12-12 12:11:34 GMT 41.822716 0.288199 34,950 188 520 64
2019-12-12 12:11:26 GMT 41.843811 0.292012 34,950 188 519 64
2019-12-12 12:11:18 GMT 41.861710 0.295258 34,950 188 518 0
2019-12-12 12:11:14 GMT 41.872993 0.297270 34,950 188 519 0
2019-12-12 12:11:08 GMT 41.885609 0.299505 34,950 188 518 0
2019-12-12 12:11:04 GMT 41.895336 0.301230 34,950 188 518 0
2019-12-12 12:10:58 GMT 41.910282 0.303849 34,950 188 517 0
2019-12-12 12:10:55 GMT 41.917171 0.305062 34,950 188 517 0
2019-12-12 12:10:45 GMT 41.940720 0.309240 34,950 188 516 -64
2019-12-12 12:10:35 GMT 41.966888 0.313941 34,975 188 515 -64
2019-12-12 12:10:25 GMT 41.986862 0.317542 34,975 188 515 -64
2019-12-12 12:10:22 GMT 41.994141 0.318853 34,975 188 514 -64
2019-12-12 12:10:16 GMT 42.008560 0.321475 34,975 188 514 -64
2019-12-12 12:10:13 GMT 42.015610 0.322786 35,000 188 514 -64
2019-12-12 12:10:05 GMT 42.034698 0.326281 35,000 188 514 -64
2019-12-12 12:10:02 GMT 42.041420 0.327482 35,000 188 514 -64
2019-12-12 12:09:53 GMT 42.071228 0.332898 35,000 188 514 -64
2019-12-12 12:09:44 GMT 42.086483 0.335658 35,000 188 514 0
2019-12-12 12:09:36 GMT 42.110550 0.340065 35,000 188 515 0
2019-12-12 12:09:33 GMT 42.116089 0.341076 35,000 188 515 0
2019-12-12 12:09:23 GMT 42.133919 0.344345 35,000 188 515 0
2019-12-12 12:09:12 GMT 42.159245 0.348944 35,000 188 516 64
2019-12-12 12:09:02 GMT 42.183975 0.353498 35,000 188 517 64
2019-12-12 12:08:52 GMT 42.207844 0.357822 35,000 188 517 0
2019-12-12 12:08:45 GMT 42.226227 0.361176 35,000 188 517 0
2019-12-12 12:08:41 GMT 42.232635 0.362362 35,000 188 517 -64
2019-12-12 12:08:34 GMT 42.250168 0.365608 35,000 188 517 -64
2019-12-12 12:08:30 GMT 42.258587 0.367148 35,000 188 517 0
2019-12-12 12:08:24 GMT 42.273880 0.369977 35,000 188 517 0
2019-12-12 12:08:20 GMT 42.282047 0.371491 35,000 188 517 0
2019-12-12 12:08:14 GMT 42.306953 0.376026 35,000 188 517 0
2019-12-12 12:08:03 GMT 42.322872 0.378901 35,000 188 518 0
2019-12-12 12:08:00 GMT 42.331284 0.380402 35,000 188 518 -64
2019-12-12 12:07:53 GMT 42.346382 0.383052 35,000 188 519 -128
2019-12-12 12:07:43 GMT 42.370560 0.387081 35,025 187 518 -64
2019-12-12 12:07:40 GMT 42.377930 0.388329 35,050 187 518 -64
2019-12-12 12:07:33 GMT 42.394592 0.391013 35,050 187 519 0
2019-12-12 12:07:30 GMT 42.401505 0.392137 35,025 187 519 64
2019-12-12 12:07:23 GMT 42.429611 0.397817 35,025 206 490 0
2019-12-12 12:07:18 GMT 42.429611 0.397817 35,025 205 490 0
2019-12-12 12:07:13 GMT 42.442558 0.402087 35,025 197 505 64
2019-12-12 12:07:09 GMT 42.450897 0.405558 35,025 198 503 64
2019-12-12 12:07:02 GMT 42.464859 0.412434 35,025 203 494 0
2019-12-12 12:06:59 GMT 42.477859 0.420165 35,025 205 490 0
2019-12-12 12:06:52 GMT 42.486877 0.425907 35,025 206 489 0
2019-12-12 12:06:47 GMT 42.496235 0.431852 35,025 206 489 0
2019-12-12 12:06:40 GMT 42.518005 0.445758 35,025 206 488 0
2019-12-12 12:06:36 GMT 42.518005 0.445758 35,025 206 488 0
2019-12-12 12:06:33 GMT 42.524368 0.449815 35,000 206 488 64
2019-12-12 12:06:30 GMT 42.533428 0.455613 35,000 206 489 64
2019-12-12 12:06:24 GMT 42.544785 0.462924 35,000 206 488 64
2019-12-12 12:06:19 GMT 42.553940 0.468792 35,000 206 488 64
2019-12-12 12:06:13 GMT 42.565933 0.476594 34,975 206 487 64
2019-12-12 12:06:09 GMT 42.575089 0.482525 34,975 206 488 0
2019-12-12 12:06:06 GMT 42.580399 0.485958 34,975 206 488 0
2019-12-12 12:06:02 GMT 42.590271 0.492341 35,000 206 488 0
2019-12-12 12:05:58 GMT 42.595688 0.495758 34,975 205 489 0
2019-12-12 12:05:54 GMT 42.616791 0.508492 34,975 204 491 0
2019-12-12 12:05:49 GMT 42.616791 0.508492 34,975 204 491 -64
2019-12-12 12:05:43 GMT 42.628967 0.515359 35,000 202 492 -64
2019-12-12 12:05:38 GMT 42.638718 0.520540 35,000 202 493 -64
2019-12-12 12:05:35 GMT 42.645248 0.523958 35,000 201 494 -64
2019-12-12 12:05:30 GMT 42.655197 0.528904 35,025 200 495 -64
2019-12-12 12:05:27 GMT 42.663544 0.532837 35,025 199 495 -64
2019-12-12 12:05:22 GMT 42.672203 0.536861 35,025 198 497 -64
2019-12-12 12:05:18 GMT 42.682617 0.541389 35,000 196 500 64
2019-12-12 12:05:14 GMT 42.689751 0.544398 35,025 196 499 0
2019-12-12 12:05:10 GMT 42.698364 0.547847 35,025 195 502 64
2019-12-12 12:05:07 GMT 42.706604 0.551041 35,025 196 500 64
2019-12-12 12:05:04 GMT 42.714191 0.553851 35,025 195 501 0
2019-12-12 12:05:00 GMT 42.722759 0.556790 35,000 195 503 64
2019-12-12 12:04:56 GMT 42.730774 0.559491 35,000 194 503 64
2019-12-12 12:04:53 GMT 42.744732 0.563816 35,000 193 504 64
2019-12-12 12:04:50 GMT 42.744732 0.563816 35,000 191 507 64
2019-12-12 12:04:45 GMT 42.761581 0.568542 35,000 191 507 64
2019-12-12 12:04:39 GMT 42.768612 0.570331 35,000 188 510 -64
2019-12-12 12:04:35 GMT 42.778809 0.572694 35,000 190 508 0
2019-12-12 12:04:32 GMT 42.786804 0.574410 35,000 189 509 0
2019-12-12 12:04:28 GMT 42.803192 0.577594 35,000 188 510 0
2019-12-12 12:04:20 GMT 42.822830 0.581062 35,000 188 510 64
2019-12-12 12:04:17 GMT 42.827641 0.581883 35,000 188 510 0
2019-12-12 12:04:10 GMT 42.839447 0.584000 35,000 188 510 0
2019-12-12 12:04:06 GMT 42.847366 0.585405 35,000 188 510 0
2019-12-12 12:04:02 GMT 42.858971 0.587442 35,000 188 510 0
2019-12-12 12:03:59 GMT 42.871262 0.589621 35,000 188 510 0
2019-12-12 12:03:56 GMT 42.871262 0.589621 35,000 188 510 64
2019-12-12 12:03:51 GMT 42.888672 0.592673 35,000 188 508 0
2019-12-12 12:03:45 GMT 42.901657 0.594922 35,000 188 509 0
2019-12-12 12:03:42 GMT 42.908661 0.596200 35,000 188 509 0
2019-12-12 12:03:35 GMT 42.925919 0.599266 35,000 188 509 0
2019-12-12 12:03:29 GMT 42.934196 0.600717 35,000 188 508 -64
2019-12-12 12:03:24 GMT 42.943741 0.602417 35,000 188 507 0
2019-12-12 12:03:20 GMT 42.960033 0.605360 35,000 188 507 0
2019-12-12 12:03:14 GMT 42.969223 0.606995 35,000 188 507 64
2019-12-12 12:03:11 GMT 42.982498 0.609422 35,000 188 507 64
2019-12-12 12:03:03 GMT 42.994717 0.611572 35,000 188 507 0
2019-12-12 12:02:58 GMT 43.005524 0.613510 35,000 188 507 0
2019-12-12 12:02:54 GMT 43.014359 0.615107 35,000 188 507 0
2019-12-12 12:02:48 GMT 43.029350 0.617785 35,000 188 507 0
2019-12-12 12:02:44 GMT 43.038757 0.619514 35,000 188 506 -64
2019-12-12 12:02:40 GMT 43.048279 0.621239 35,000 188 506 -64
2019-12-12 12:02:37 GMT 43.054779 0.622388 35,000 188 506 -64
2019-12-12 12:02:34 GMT 43.063156 0.623857 35,025 188 506 -64
2019-12-12 12:02:27 GMT 43.077988 0.626540 35,025 188 506 0
2019-12-12 12:02:19 GMT 43.095966 0.629752 35,025 188 506 64
2019-12-12 12:02:16 GMT 43.102203 0.630929 35,000 188 506 64
2019-12-12 12:02:09 GMT 43.119507 0.634013 35,000 188 506 64
2019-12-12 12:02:05 GMT 43.128799 0.635674 35,000 188 506 64
2019-12-12 12:02:02 GMT 43.134567 0.636696 34,975 188 505 0
2019-12-12 12:01:59 GMT 43.144661 0.638515 34,975 188 506 0
2019-12-12 12:01:55 GMT 43.151642 0.639757 34,975 188 506 0
2019-12-12 12:01:48 GMT 43.168308 0.642766 35,000 188 505 0
2019-12-12 12:01:45 GMT 43.173981 0.643786 35,000 188 505 0
2019-12-12 12:01:37 GMT 43.195404 0.647605 35,000 188 504 -64
2019-12-12 12:01:29 GMT 43.212387 0.650684 35,000 188 503 -64
2019-12-12 12:01:25 GMT 43.220444 0.652154 35,025 188 503 -64
2019-12-12 12:01:22 GMT 43.228642 0.653621 35,025 188 503 -64
2019-12-12 12:01:16 GMT 43.241535 0.655975 35,025 188 503 0
2019-12-12 12:01:12 GMT 43.251114 0.657647 35,025 188 503 0
2019-12-12 12:01:09 GMT 43.258713 0.659052 35,025 188 503 0
2019-12-12 12:01:06 GMT 43.265511 0.660226 35,025 188 503 0
2019-12-12 12:01:00 GMT 43.279800 0.662776 35,025 188 503 0
2019-12-12 12:00:55 GMT 43.290882 0.664738 35,000 188 503 0
2019-12-12 12:00:51 GMT 43.299271 0.666270 35,025 188 503 0
2019-12-12 12:00:48 GMT 43.309315 0.668008 35,000 188 503 0
2019-12-12 12:00:44 GMT 43.315739 0.669185 35,000 188 503 0
2019-12-12 12:00:40 GMT 43.323944 0.670613 35,025 188 502 0
2019-12-12 12:00:36 GMT 43.335571 0.672716 35,025 188 502 0
2019-12-12 12:00:33 GMT 43.341576 0.673828 35,025 188 502 64
2019-12-12 12:00:29 GMT 43.349030 0.675148 35,000 188 502 64
2019-12-12 12:00:24 GMT 43.361893 0.677512 35,000 188 502 64
2019-12-12 12:00:20 GMT 43.370533 0.679060 35,000 188 502 64
2019-12-12 12:00:15 GMT 43.382401 0.681216 35,000 188 502 64
2019-12-12 12:00:12 GMT 43.389198 0.682460 35,000 188 502 0
2019-12-12 12:00:08 GMT 43.397369 0.683899 35,000 188 502 0
2019-12-12 12:00:02 GMT 43.411964 0.686515 35,000 188 502 0
2019-12-12 11:59:58 GMT 43.429321 0.689648 35,000 188 502 0
2019-12-12 11:59:55 GMT 43.429321 0.689648 35,000 188 502 0
2019-12-12 11:59:48 GMT 43.446579 0.692714 35,000 188 501 0
2019-12-12 11:59:45 GMT 43.453396 0.693970 35,000 188 501 0
2019-12-12 11:59:40 GMT 43.464066 0.695907 35,000 188 501 0
2019-12-12 11:59:37 GMT 43.469688 0.696912 35,000 188 500 0
2019-12-12 11:59:32 GMT 43.481506 0.699037 35,000 188 500 0
2019-12-12 11:59:27 GMT 43.491806 0.700953 35,000 188 500 0
2019-12-12 11:59:24 GMT 43.500179 0.702471 35,000 188 500 0
2019-12-12 11:59:20 GMT 43.507767 0.703844 35,000 188 500 0
2019-12-12 11:59:17 GMT 43.515774 0.705348 35,000 188 499 0
2019-12-12 11:59:14 GMT 43.522751 0.706574 35,000 188 499 0
2019-12-12 11:59:10 GMT 43.530762 0.708107 35,000 188 498 -64
2019-12-12 11:59:07 GMT 43.540260 0.709861 35,000 188 498 -64
2019-12-12 11:59:03 GMT 43.547337 0.711103 35,000 188 499 0
2019-12-12 11:58:54 GMT 43.571358 0.715485 35,000 188 498 -64
2019-12-12 11:58:48 GMT 43.580948 0.717250 35,000 188 498 0
2019-12-12 11:58:43 GMT 43.592697 0.719349 35,000 188 498 0
2019-12-12 11:58:37 GMT 43.606041 0.721763 35,000 188 498 0
2019-12-12 11:58:32 GMT 43.619385 0.724203 35,000 188 497 0
2019-12-12 11:58:27 GMT 43.628723 0.725864 35,000 188 497 0
2019-12-12 11:58:22 GMT 43.640579 0.728036 35,000 188 497 0
2019-12-12 11:58:17 GMT 43.655060 0.730656 35,000 188 497 0
2019-12-12 11:58:12 GMT 43.664474 0.732379 35,000 188 497 0
2019-12-12 11:58:09 GMT 43.671677 0.733664 35,000 188 496 0
2019-12-12 11:58:06 GMT 43.678391 0.734870 35,000 188 496 0
2019-12-12 11:58:01 GMT 43.689648 0.736934 35,000 188 496 0
2019-12-12 11:57:54 GMT 43.712494 0.741066 35,000 188 496 64
2019-12-12 11:57:51 GMT 43.712494 0.741066 35,000 188 496 64
2019-12-12 11:57:44 GMT 43.730484 0.744260 35,000 188 496 0
2019-12-12 11:57:41 GMT 43.744995 0.746879 35,000 188 495 0
2019-12-12 11:57:37 GMT 43.744995 0.746879 35,000 188 495 0
2019-12-12 11:57:30 GMT 43.758266 0.749228 35,000 188 495 0
2019-12-12 11:57:24 GMT 43.775208 0.752308 35,000 188 495 0
2019-12-12 11:57:20 GMT 43.782101 0.753544 34,975 188 495 0
2019-12-12 11:57:15 GMT 43.793564 0.755629 35,000 188 495 0
2019-12-12 11:57:10 GMT 43.805470 0.757730 35,000 188 494 0
2019-12-12 11:57:05 GMT 43.816132 0.759626 35,000 188 494 0
2019-12-12 11:57:02 GMT 43.824142 0.761123 35,000 188 494 0
2019-12-12 11:56:57 GMT 43.835823 0.763223 35,000 188 494 0
2019-12-12 11:56:54 GMT 43.841354 0.764189 35,000 188 494 0
2019-12-12 11:56:51 GMT 43.848064 0.765381 35,000 188 494 0
2019-12-12 11:56:48 GMT 43.853466 0.766427 35,000 188 494 -64
2019-12-12 11:56:45 GMT 43.864124 0.768324 35,000 188 493 0
2019-12-12 11:56:38 GMT 43.876007 0.770512 35,000 188 493 0
2019-12-12 11:56:29 GMT 43.896435 0.774275 35,000 188 493 0
2019-12-12 11:56:26 GMT 43.903881 0.775713 35,000 188 493 64
2019-12-12 11:56:20 GMT 43.917427 0.778198 34,975 188 492 64
2019-12-12 11:56:17 GMT 43.923431 0.779327 34,975 188 492 64
2019-12-12 11:56:14 GMT 43.931671 0.780814 34,975 188 492 64
2019-12-12 11:56:11 GMT 43.940239 0.782384 34,975 188 492 64
2019-12-12 11:56:05 GMT 43.953003 0.784820 34,975 188 491 0
2019-12-12 11:55:57 GMT 43.970352 0.788014 34,975 188 492 0
2019-12-12 11:55:52 GMT 43.980286 0.789866 34,975 188 492 0
2019-12-12 11:55:49 GMT 43.987164 0.791146 34,975 188 492 0
2019-12-12 11:55:46 GMT 43.993679 0.792389 34,975 188 491 0
2019-12-12 11:55:42 GMT 44.002945 0.794089 34,975 188 491 0
2019-12-12 11:55:38 GMT 44.011826 0.795742 34,975 188 491 0
2019-12-12 11:55:33 GMT 44.023087 0.797850 34,975 188 491 64
2019-12-12 11:55:29 GMT 44.042282 0.801413 34,975 188 491 0
2019-12-12 11:55:21 GMT 44.050507 0.802896 34,975 188 491 0
2019-12-12 11:55:17 GMT 44.059177 0.804487 34,975 188 490 0
2019-12-12 11:55:12 GMT 44.071838 0.806856 34,975 188 490 0
2019-12-12 11:55:09 GMT 44.077469 0.807878 34,975 188 490 -64
2019-12-12 11:55:06 GMT 44.083199 0.808934 34,975 188 490 0
2019-12-12 11:55:03 GMT 44.091614 0.810497 34,975 188 490 0
2019-12-12 11:54:58 GMT 44.102100 0.812465 34,975 188 490 0
2019-12-12 11:54:51 GMT 44.119370 0.815669 34,975 188 490 0
2019-12-12 11:54:47 GMT 44.137253 0.818992 34,975 188 490 0
2019-12-12 11:54:42 GMT 44.137253 0.818992 34,975 188 490 0
2019-12-12 11:54:38 GMT 44.156425 0.822536 34,975 188 490 0
2019-12-12 11:54:34 GMT 44.156425 0.822536 34,975 188 490 0
2019-12-12 11:54:30 GMT 44.164062 0.823909 35,000 188 490 -64
2019-12-12 11:54:26 GMT 44.174397 0.825871 35,000 188 489 -64
2019-12-12 11:54:21 GMT 44.184128 0.827679 35,000 188 489 0
2019-12-12 11:54:17 GMT 44.213173 0.833018 35,000 188 489 0
2019-12-12 11:54:10 GMT 44.213173 0.833018 35,000 188 489 0
2019-12-12 11:54:06 GMT 44.217876 0.833889 35,000 188 490 0
2019-12-12 11:54:01 GMT 44.237778 0.837642 35,000 188 490 0
2019-12-12 11:53:58 GMT 44.237778 0.837642 35,000 188 490 0
2019-12-12 11:53:53 GMT 44.247665 0.839473 35,000 188 490 0
2019-12-12 11:53:49 GMT 44.257553 0.841370 35,000 188 490 0
2019-12-12 11:53:45 GMT 44.266430 0.843000 35,000 188 490 -64
2019-12-12 11:53:39 GMT 44.282043 0.845947 35,000 188 490 -64
2019-12-12 11:53:34 GMT 44.290146 0.847517 35,000 188 490 0
2019-12-12 11:53:31 GMT 44.300133 0.849431 35,000 188 490 0
2019-12-12 11:53:28 GMT 44.315781 0.852356 35,000 188 491 0
2019-12-12 11:53:20 GMT 44.322388 0.853584 35,025 188 491 0
2019-12-12 11:53:16 GMT 44.331711 0.855364 35,025 188 491 0
2019-12-12 11:53:08 GMT 44.348602 0.858503 35,025 188 491 0
2019-12-12 11:53:04 GMT 44.359020 0.860484 35,025 188 491 0
2019-12-12 11:52:57 GMT 44.373688 0.863164 35,025 188 491 0
2019-12-12 11:52:54 GMT 44.380966 0.864519 35,025 188 491 0
2019-12-12 11:52:50 GMT 44.391701 0.866513 35,025 188 491 0
2019-12-12 11:52:47 GMT 44.398544 0.867789 35,025 188 491 0
2019-12-12 11:52:43 GMT 44.406551 0.869260 35,025 188 492 -64
2019-12-12 11:52:35 GMT 44.425686 0.872743 35,025 188 492 0
2019-12-12 11:52:32 GMT 44.429970 0.873547 35,025 188 492 0
2019-12-12 11:52:27 GMT 44.441700 0.875691 35,025 188 492 0
2019-12-12 11:52:22 GMT 44.452652 0.877664 35,025 188 492 0
2019-12-12 11:52:18 GMT 44.461761 0.879375 35,025 188 491 0
2019-12-12 11:52:14 GMT 44.470749 0.881050 35,025 188 492 0
2019-12-12 11:52:11 GMT 44.488113 0.884332 35,025 188 491 0
2019-12-12 11:52:04 GMT 44.492626 0.885203 35,025 188 492 0
2019-12-12 11:51:56 GMT 44.530334 0.892312 35,025 188 492 0
2019-12-12 11:51:48 GMT 44.530334 0.892312 35,025 188 492 64
2019-12-12 11:51:45 GMT 44.537567 0.893685 35,025 188 492 0
2019-12-12 11:51:38 GMT 44.553005 0.896592 35,025 188 492 -64
2019-12-12 11:51:34 GMT 44.560223 0.897998 35,025 188 492 -64
2019-12-12 11:51:28 GMT 44.582752 0.902219 35,025 188 492 0
2019-12-12 11:51:25 GMT 44.582752 0.902219 35,025 188 492 0
2019-12-12 11:51:15 GMT 44.604950 0.906372 35,025 188 491 64
2019-12-12 11:51:10 GMT 44.625687 0.910296 35,025 188 491 0
2019-12-12 11:51:05 GMT 44.625687 0.910296 35,025 188 491 0
2019-12-12 11:51:02 GMT 44.633911 0.911798 35,025 188 491 0
2019-12-12 11:50:55 GMT 44.649464 0.914746 35,025 188 491 0
2019-12-12 11:50:52 GMT 44.656212 0.916019 35,000 188 491 0
2019-12-12 11:50:44 GMT 44.673763 0.919301 35,025 188 490 0
2019-12-12 11:50:40 GMT 44.681946 0.920824 35,000 188 490 0
2019-12-12 11:50:36 GMT 44.691963 0.922718 35,000 188 490 64
2019-12-12 11:50:33 GMT 44.701492 0.924486 35,000 188 490 64
2019-12-12 11:50:29 GMT 44.707233 0.925531 35,000 188 490 64
2019-12-12 11:50:24 GMT 44.719105 0.927742 35,000 188 489 64
2019-12-12 11:50:19 GMT 44.730652 0.929914 35,000 188 489 0
2019-12-12 11:50:16 GMT 44.743652 0.932334 35,000 188 488 0
2019-12-12 11:50:08 GMT 44.754066 0.934307 35,000 188 488 0
2019-12-12 11:50:05 GMT 44.761700 0.935714 35,000 188 482 0
2019-12-12 11:50:00 GMT 44.772308 0.937696 35,000 188 487 0
2019-12-12 11:49:54 GMT 44.784695 0.940001 35,000 188 487 0
2019-12-12 11:49:50 GMT 44.795288 0.942012 35,000 188 486 0
2019-12-12 11:49:46 GMT 44.802383 0.943386 35,000 188 485 0
2019-12-12 11:49:42 GMT 44.811604 0.945092 35,000 188 485 0
2019-12-12 11:49:35 GMT 44.830170 0.948617 35,000 188 484 0
2019-12-12 11:49:32 GMT 44.834381 0.949402 35,000 188 483 0
2019-12-12 11:49:24 GMT 44.858574 0.954002 35,000 188 482 0
2019-12-12 11:49:14 GMT 44.875381 0.957150 35,000 188 482 0
2019-12-12 11:49:11 GMT 44.879929 0.958034 35,000 188 482 0
2019-12-12 11:49:05 GMT 44.893955 0.960634 35,000 188 482 0
2019-12-12 11:49:01 GMT 44.902798 0.962309 35,000 188 482 0
2019-12-12 11:48:55 GMT 44.917137 0.964988 35,000 188 477 0
2019-12-12 11:48:52 GMT 44.923874 0.966274 35,000 188 482 0
2019-12-12 11:48:43 GMT 44.943253 0.969878 35,000 188 482 64
2019-12-12 11:48:39 GMT 44.950748 0.971352 35,000 188 482 64
2019-12-12 11:48:32 GMT 44.966309 0.974317 34,975 188 479 -64
2019-12-12 11:48:29 GMT 44.972946 0.975560 34,975 188 481 0
2019-12-12 11:48:23 GMT 44.988689 0.978587 35,000 188 480 0
2019-12-12 11:48:20 GMT 44.993065 0.979458 35,000 188 479 -64
2019-12-12 11:48:13 GMT 45.008286 0.982426 35,000 188 476 0
2019-12-12 11:48:09 GMT 45.017212 0.984126 35,000 188 475 64
2019-12-12 11:48:01 GMT 45.034218 0.987363 34,950 188 472 576
2019-12-12 11:47:58 GMT 45.040833 0.988639 34,925 188 471 768
2019-12-12 11:47:49 GMT 45.061752 0.992628 34,625 188 472 1600
2019-12-12 11:47:41 GMT 45.079697 0.996028 34,425 188 472 1600
2019-12-12 11:47:36 GMT 45.088917 0.997813 34,475 188 473 1536
2019-12-12 11:47:30 GMT 45.102448 1.000410 34,300 188 474 1088
2019-12-12 11:47:27 GMT 45.109177 1.001718 34,250 188 474 1024
2019-12-12 11:47:21 GMT 45.128857 1.005450 34,125 188 473 960
2019-12-12 11:47:18 GMT 45.135139 1.006656 34,050 188 473 960
2019-12-12 11:47:09 GMT 45.154835 1.010474 33,875 188 473 1344
2019-12-12 11:46:59 GMT 45.169823 1.013355 33,675 188 474 1216
2019-12-12 11:46:56 GMT 45.176010 1.014535 33,675 188 474 1088
2019-12-12 11:46:49 GMT 45.191849 1.017609 33,550 188 473 960
2019-12-12 11:46:45 GMT 45.198917 1.018982 33,500 188 473 896
2019-12-12 11:46:39 GMT 45.213501 1.021794 33,400 188 472 768
2019-12-12 11:46:35 GMT 45.221214 1.023336 33,350 188 472 704
2019-12-12 11:46:30 GMT 45.234695 1.025914 33,275 188 470 576
2019-12-12 11:46:26 GMT 45.240463 1.027091 33,250 188 469 576
2019-12-12 11:46:22 GMT 45.248962 1.028762 33,200 188 449 1024
2019-12-12 11:46:18 GMT 45.257759 1.030437 33,175 188 466 448
2019-12-12 11:46:14 GMT 45.266697 1.032179 33,150 188 465 448
2019-12-12 11:46:11 GMT 45.272655 1.033385 33,125 188 463 448
2019-12-12 11:46:06 GMT 45.283401 1.035461 33,075 188 462 384
2019-12-12 11:46:01 GMT 45.294258 1.037605 33,025 188 449 1024
2019-12-12 11:45:58 GMT 45.301239 1.038945 33,025 188 458 448
2019-12-12 11:45:53 GMT 45.310875 1.040821 33,000 188 457 448
2019-12-12 11:45:50 GMT 45.315994 1.041805 32,975 188 456 448
2019-12-12 11:45:45 GMT 45.326935 1.043969 32,950 188 454 448
2019-12-12 11:45:39 GMT 45.339294 1.046317 32,875 188 449 1024
2019-12-12 11:45:35 GMT 45.347992 1.047952 32,850 188 450 768
2019-12-12 11:45:31 GMT 45.355751 1.049462 32,800 188 450 832
2019-12-12 11:45:28 GMT 45.365391 1.051338 32,750 188 449 1088
2019-12-12 11:45:25 GMT 45.374954 1.053183 32,650 188 448 1216
2019-12-12 11:45:14 GMT 45.390518 1.056192 32,525 188 447 1344
2019-12-12 11:45:10 GMT 45.398712 1.057761 32,375 188 447 1408
2019-12-12 11:45:05 GMT 45.418167 1.061554 32,225 188 447 1536
2019-12-12 11:45:01 GMT 45.418167 1.061554 32,150 188 447 1408
2019-12-12 11:44:56 GMT 45.428421 1.063581 32,050 188 447 1216
2019-12-12 11:44:53 GMT 45.433636 1.064535 32,000 188 447 1152
2019-12-12 11:44:48 GMT 45.445503 1.066880 31,875 188 446 1344
2019-12-12 11:44:45 GMT 45.450813 1.067884 31,825 188 446 1408
2019-12-12 11:44:40 GMT 45.461658 1.069961 31,700 188 445 1728
2019-12-12 11:44:36 GMT 45.469620 1.071435 31,550 188 447 2048
2019-12-12 11:44:33 GMT 45.474838 1.072475 31,425 188 448 2112
2019-12-12 11:44:27 GMT 45.488285 1.075052 31,250 188 449 2240
2019-12-12 11:44:23 GMT 45.496292 1.076593 30,875 188 451 2112
2019-12-12 11:44:19 GMT 45.504349 1.078134 30,975 188 451 1920
2019-12-12 11:44:16 GMT 45.509747 1.079139 30,900 188 452 1856
2019-12-12 11:44:11 GMT 45.521027 1.081369 30,725 188 452 1728
2019-12-12 11:44:08 GMT 45.527718 1.082622 30,650 188 452 1600
2019-12-12 11:44:05 GMT 45.533020 1.083657 30,575 188 452 1536
2019-12-12 11:44:02 GMT 45.539959 1.085034 30,500 188 452 1536
2019-12-12 11:43:58 GMT 45.548244 1.086617 30,350 188 452 1664
2019-12-12 11:43:55 GMT 45.560860 1.089088 30,325 188 452 1280
2019-12-12 11:43:47 GMT 45.569752 1.090805 30,050 188 450 1408
2019-12-12 11:43:44 GMT 45.585342 1.093810 29,975 188 450 1472
2019-12-12 11:43:37 GMT 45.591110 1.094948 29,900 188 450 1408
2019-12-12 11:43:34 GMT 45.597172 1.096161 29,900 188 450 1408
2019-12-12 11:43:31 GMT 45.602528 1.097191 29,800 188 449 1536
2019-12-12 11:43:27 GMT 45.618439 1.100241 29,575 188 449 1792
2019-12-12 11:43:24 GMT 45.625259 1.101580 29,475 188 450 2048
2019-12-12 11:43:16 GMT 45.644516 1.105293 29,150 188 452 1792
2019-12-12 11:43:11 GMT 45.644516 1.105293 29,150 188 452 1792
2019-12-12 11:43:05 GMT 45.656799 1.107676 28,950 188 452 1856
2019-12-12 11:43:00 GMT 45.667145 1.109686 28,825 188 452 1600
2019-12-12 11:42:56 GMT 45.676357 1.111473 28,650 188 452 1408
2019-12-12 11:42:52 GMT 45.683716 1.112902 28,625 188 451 1344
2019-12-12 11:42:44 GMT 45.700058 1.116050 28,350 188 450 1408
2019-12-12 11:42:40 GMT 45.708298 1.117658 28,350 188 450 1408
2019-12-12 11:42:34 GMT 45.720840 1.120137 27,900 188 448 1344
2019-12-12 11:42:30 GMT 45.729904 1.121878 28,100 188 449 1408
2019-12-12 11:42:26 GMT 45.739670 1.123764 28,000 188 448 1280
2019-12-12 11:42:21 GMT 45.746838 1.125206 27,925 188 447 1216
2019-12-12 11:42:15 GMT 45.759918 1.127747 27,800 188 445 1216
2019-12-12 11:42:12 GMT 45.766754 1.129113 27,750 188 444 1216
2019-12-12 11:42:04 GMT 45.782684 1.132210 27,550 188 443 1280
2019-12-12 11:42:00 GMT 45.789871 1.133668 27,475 188 442 1280
2019-12-12 11:41:54 GMT 45.801723 1.135986 27,350 188 440 1216
2019-12-12 11:41:51 GMT 45.808800 1.137428 27,275 188 440 1216
2019-12-12 11:41:47 GMT 45.816330 1.138894 27,200 189 438 1280
2019-12-12 11:41:44 GMT 45.822250 1.140106 27,150 189 438 1280
2019-12-12 11:41:41 GMT 45.828861 1.141411 27,075 189 437 1280
2019-12-12 11:41:37 GMT 45.842083 1.144089 26,950 189 435 1024
2019-12-12 11:41:30 GMT 45.849747 1.145593 26,875 188 434 960
2019-12-12 11:41:25 GMT 45.862427 1.148138 26,775 188 431 960
2019-12-12 11:41:20 GMT 45.869411 1.149513 26,700 188 430 1024
2019-12-12 11:41:14 GMT 45.881882 1.152024 26,625 188 427 1344
2019-12-12 11:41:10 GMT 45.890034 1.153633 26,000 188 424 1920
2019-12-12 11:41:04 GMT 45.902390 1.156043 26,350 188 424 1728
2019-12-12 11:40:59 GMT 45.912052 1.157959 26,200 188 424 1856
2019-12-12 11:40:54 GMT 45.921661 1.159861 26,025 188 424 1920
2019-12-12 11:40:47 GMT 45.937328 1.162903 25,775 188 424 1920
2019-12-12 11:40:44 GMT 45.941238 1.163658 25,700 188 424 1920
2019-12-12 11:40:39 GMT 45.950970 1.165512 25,550 188 424 1728
2019-12-12 11:40:36 GMT 45.956600 1.166611 25,475 188 424 1600
2019-12-12 11:40:28 GMT 45.971172 1.169426 25,300 188 422 1472
2019-12-12 11:40:24 GMT 45.981537 1.171384 25,150 188 421 1472
2019-12-12 11:40:18 GMT 45.991562 1.173259 25,025 188 420 1472
2019-12-12 11:40:13 GMT 46.000626 1.175001 24,925 188 418 1536
2019-12-12 11:40:10 GMT 46.006458 1.176086 24,850 188 418 1536
2019-12-12 11:40:06 GMT 46.014999 1.177748 24,725 188 416 1536
2019-12-12 11:40:03 GMT 46.020355 1.178820 24,650 188 416 1536
2019-12-12 11:39:59 GMT 46.028366 1.180360 24,550 189 415 1536
2019-12-12 11:39:55 GMT 46.035004 1.181767 24,450 189 414 1472
2019-12-12 11:39:52 GMT 46.040955 1.183090 24,375 191 411 1536
2019-12-12 11:39:48 GMT 46.048588 1.185150 24,125 194 407 1856
2019-12-12 11:39:44 GMT 46.057201 1.188240 24,125 196 405 1984
2019-12-12 11:39:40 GMT 46.062836 1.190677 24,000 199 402 2048
2019-12-12 11:39:36 GMT 46.070068 1.194227 23,725 202 400 1856
2019-12-12 11:39:32 GMT 46.076706 1.197990 23,750 203 399 1728
2019-12-12 11:39:27 GMT 46.085365 1.203209 23,625 203 397 1472
2019-12-12 11:39:23 GMT 46.093468 1.208153 23,500 203 396 1472
2019-12-12 11:39:16 GMT 46.103302 1.214123 23,375 203 394 1536
2019-12-12 11:39:12 GMT 46.110214 1.218277 23,250 203 392 1600
2019-12-12 11:39:07 GMT 46.118866 1.223569 23,050 203 390 2112
2019-12-12 11:39:01 GMT 46.128613 1.229507 22,925 203 390 2048
2019-12-12 11:38:54 GMT 46.139923 1.236374 22,675 203 389 2240
2019-12-12 11:38:51 GMT 46.144905 1.239395 22,600 203 389 2240
2019-12-12 11:38:46 GMT 46.153976 1.244872 22,375 203 389 2176
2019-12-12 11:38:41 GMT 46.161438 1.249427 22,200 203 389 2048
2019-12-12 11:38:35 GMT 46.177910 1.259514 21,900 204 388 1792
2019-12-12 11:38:31 GMT 46.177910 1.259514 21,875 204 388 1792
2019-12-12 11:38:24 GMT 46.195953 1.270596 21,575 204 384 1600
2019-12-12 11:38:16 GMT 46.203564 1.275238 21,450 204 383 1728
2019-12-12 11:38:11 GMT 46.211105 1.279907 21,325 204 381 1856
2019-12-12 11:38:05 GMT 46.221577 1.286293 21,100 204 380 2112
2019-12-12 11:38:01 GMT 46.228188 1.290344 20,950 204 379 2368
2019-12-12 11:37:55 GMT 46.245739 1.301193 20,475 204 378 2176
2019-12-12 11:37:50 GMT 46.245739 1.301193 20,500 204 378 2304
2019-12-12 11:37:43 GMT 46.256470 1.307842 20,150 204 376 1856
2019-12-12 11:37:39 GMT 46.262917 1.311836 20,150 204 375 1856
2019-12-12 11:37:33 GMT 46.273762 1.318565 19,800 204 373 1792
2019-12-12 11:37:28 GMT 46.280418 1.322685 19,875 204 373 1856
2019-12-12 11:37:25 GMT 46.285583 1.325862 19,700 203 371 1984
2019-12-12 11:37:22 GMT 46.290298 1.328810 19,600 203 370 2112
2019-12-12 11:37:18 GMT 46.296062 1.332230 19,525 203 369 2368
2019-12-12 11:37:13 GMT 46.308975 1.339863 19,150 203 370 2688
2019-12-12 11:37:10 GMT 46.313145 1.342323 19,075 202 369 2752
2019-12-12 11:37:03 GMT 46.325317 1.349376 18,625 203 371 2880
2019-12-12 11:37:00 GMT 46.329533 1.351868 18,525 203 371 2880
2019-12-12 11:36:53 GMT 46.336258 1.355807 17,975 203 371 2624
2019-12-12 11:36:50 GMT 46.341122 1.358665 18,150 203 371 2560
2019-12-12 11:36:46 GMT 46.347061 1.362238 18,050 204 370 2240
2019-12-12 11:36:43 GMT 46.350899 1.364639 17,850 204 369 1856
2019-12-12 11:36:40 GMT 46.357044 1.368416 17,800 204 367 1728
2019-12-12 11:36:36 GMT 46.362816 1.371986 17,750 204 366 1728
2019-12-12 11:36:31 GMT 46.370316 1.376707 17,575 204 364 1664
2019-12-12 11:36:28 GMT 46.375011 1.379608 17,500 204 362 1600
2019-12-12 11:36:23 GMT 46.384186 1.385376 17,325 204 357 1664
2019-12-12 11:36:19 GMT 46.388607 1.388191 17,225 204 355 1792
2019-12-12 11:36:15 GMT 46.394669 1.392048 17,100 204 354 1984
2019-12-12 11:36:12 GMT 46.399082 1.394852 17,000 204 352 2176
2019-12-12 11:36:07 GMT 46.406891 1.399886 16,800 205 350 2240
2019-12-12 11:36:02 GMT 46.413467 1.404121 16,525 205 348 2240
2019-12-12 11:35:58 GMT 46.420822 1.408928 16,475 205 347 2240
2019-12-12 11:35:51 GMT 46.429760 1.414696 16,250 205 346 2304
2019-12-12 11:35:47 GMT 46.444328 1.424103 16,075 205 341 1920
2019-12-12 11:35:41 GMT 46.444328 1.424103 15,850 205 342 2176
2019-12-12 11:35:38 GMT 46.448658 1.426918 15,700 204 337 2048
2019-12-12 11:35:32 GMT 46.457474 1.432577 15,525 204 338 1984
2019-12-12 11:35:29 GMT 46.462997 1.436119 15,425 205 336 2112
2019-12-12 11:35:21 GMT 46.473083 1.442625 15,175 205 333 2304
2019-12-12 11:35:17 GMT 46.479198 1.446556 15,025 205 331 2560
2019-12-12 11:35:10 GMT 46.488510 1.452540 14,675 204 330 2816
2019-12-12 11:35:06 GMT 46.493820 1.455956 14,525 204 329 2816
2019-12-12 11:35:00 GMT 46.502613 1.461662 14,225 204 329 2816
2019-12-12 11:34:56 GMT 46.507500 1.464821 13,550 204 328 2688
2019-12-12 11:34:50 GMT 46.516205 1.470383 13,775 205 326 2432
2019-12-12 11:34:46 GMT 46.521378 1.473709 13,650 205 324 2304
2019-12-12 11:34:38 GMT 46.533432 1.481506 13,075 205 320 2624
2019-12-12 11:34:30 GMT 46.544090 1.488441 12,925 205 318 2880
2019-12-12 11:34:26 GMT 46.550858 1.492868 12,650 205 318 3072
2019-12-12 11:34:19 GMT 46.558228 1.497691 12,450 205 317 3200
2019-12-12 11:34:15 GMT 46.564224 1.501643 12,025 205 317 3264
2019-12-12 11:34:09 GMT 46.572163 1.506912 11,850 205 317 3328
2019-12-12 11:34:06 GMT 46.586594 1.516388 11,275 205 316 2624
2019-12-12 11:33:58 GMT 46.586594 1.516388 11,375 205 316 2432
2019-12-12 11:33:55 GMT 46.590038 1.518654 11,125 204 308 1600
2019-12-12 11:33:51 GMT 46.596909 1.523147 11,025 204 308 1600
2019-12-12 11:33:48 GMT 46.599655 1.524956 10,975 204 306 1472
2019-12-12 11:33:44 GMT 46.604233 1.527770 10,900 203 304 1280
2019-12-12 11:33:39 GMT 46.611732 1.531906 10,800 198 296 1088
2019-12-12 11:33:36 GMT 46.615784 1.533760 10,750 197 294 1088
2019-12-12 11:33:28 GMT 46.624878 1.537684 10,600 197 284 1216
2019-12-12 11:33:25 GMT 46.628956 1.539459 10,550 197 279 1472
2019-12-12 11:33:20 GMT 46.641666 1.544815 10,325 197 271 2176
2019-12-12 11:33:16 GMT 46.641666 1.544815 10,225 196 265 3264
2019-12-12 11:33:08 GMT 46.649872 1.548335 9,925 197 266 2880
2019-12-12 11:33:05 GMT 46.652885 1.549553 9,800 197 265 3008
2019-12-12 11:32:59 GMT 46.660660 1.552849 9,375 196 264 3584
2019-12-12 11:32:56 GMT 46.664520 1.554428 9,225 194 268 3008
2019-12-12 11:32:48 GMT 46.673950 1.558250 8,725 196 266 3648
2019-12-12 11:32:44 GMT 46.677750 1.559791 8,525 196 267 3648
2019-12-12 11:32:37 GMT 46.686493 1.563140 8,100 195 268 3520
2019-12-12 11:32:34 GMT 46.690170 1.564453 7,925 194 268 3264
2019-12-12 11:32:23 GMT 46.703205 1.568642 7,425 192 264 2368
2019-12-12 11:32:16 GMT 46.712677 1.571112 7,100 188 257 2944
2019-12-12 11:32:06 GMT 46.723366 1.573105 6,075 185 255 3136
2019-12-12 11:32:02 GMT 46.727974 1.573723 6,450 185 254 3072
2019-12-12 11:31:55 GMT 46.736847 1.574327 6,075 181 253 3136
2019-12-12 11:31:52 GMT 46.740463 1.574394 5,900 180 252 3072
2019-12-12 11:31:41 GMT 46.752731 1.573992 5,350 177 248 3456
2019-12-12 11:31:31 GMT 46.764565 1.573448 4,750 179 244 3008
2019-12-12 11:31:21 GMT 46.775784 1.574341 4,350 191 236 1472
2019-12-12 11:31:15 GMT 46.781387 1.576270 4,250 205 234 576
2019-12-12 11:31:10 GMT 46.786674 1.579697 4,200 211 233 512
2019-12-12 11:31:02 GMT 46.793152 1.586922 4,100 229 229 960
2019-12-12 11:30:59 GMT 46.795486 1.590807 4,050 233 229 960
2019-12-12 11:30:52 GMT 46.799198 1.599472 3,950 243 229 896
2019-12-12 11:30:49 GMT 46.800781 1.604210 3,875 245 230 960
2019-12-12 11:30:38 GMT 46.805809 1.619453 3,700 245 229 960
2019-12-12 11:30:28 GMT 46.810696 1.634079 3,550 244 229 832
2019-12-12 11:30:17 GMT 46.815582 1.648224 3,400 243 225 832
2019-12-12 11:30:07 GMT 46.820705 1.661957 3,250 241 218 704
2019-12-12 11:29:56 GMT 46.826065 1.674946 3,125 238 200 896
2019-12-12 11:29:49 GMT 46.829735 1.682899 3,025 236 192 832
2019-12-12 11:29:45 GMT 46.831505 1.686607 2,975 234 181 896
2019-12-12 11:29:42 GMT 46.833366 1.690178 2,900 231 166 768
2019-12-12 11:29:34 GMT 46.837044 1.696838 2,825 230 161 1088
2019-12-12 11:29:25 GMT 46.841675 1.704221 2,550 225 151 1856
We lost coverage of the aircraft here for a total of 105 minutes
2019-12-12 09:44:22 GMT 46.919907 1.785278 1,775 214 123 -640
2019-12-12 09:44:16 GMT 46.922794 1.788025 1,850 214 123 -640
2019-12-12 09:44:04 GMT 46.928467 1.793518 1,975 214 124 -768
2019-12-12 09:43:48 GMT 46.936573 1.801265 2,175 213 128 -704
2019-12-12 09:43:23 GMT 46.949097 1.813167 2,475 214 129 -768
2019-12-12 09:43:08 GMT 46.956207 1.820023 2,650 214 130 -768
2019-12-12 09:43:05 GMT 46.957939 1.821688 2,700 214 131 -768
2019-12-12 09:43:00 GMT 46.960453 1.824083 2,750 214 131 -768
2019-12-12 09:42:53 GMT 46.963806 1.827322 2,925 214 132 -768
2019-12-12 09:42:39 GMT 46.971268 1.834511 3,025 213 134 -768
2019-12-12 09:42:32 GMT 46.977863 1.840773 3,150 214 135 -320
2019-12-12 09:42:20 GMT 46.980797 1.843590 3,175 214 134 0
2019-12-12 09:42:15 GMT 46.983543 1.846196 3,175 214 135 0
2019-12-12 09:42:11 GMT 46.985455 1.848027 3,175 213 136 0
2019-12-12 09:42:02 GMT 46.991180 1.853309 3,175 212 136 0
2019-12-12 09:41:51 GMT 46.996262 1.857925 3,175 211 137 0
2019-12-12 09:41:48 GMT 46.998230 1.859573 3,175 210 137 0
2019-12-12 09:41:41 GMT 47.002075 1.862663 3,175 206 136 0
2019-12-12 09:41:37 GMT 47.004074 1.863943 3,175 200 137 0
2019-12-12 09:41:30 GMT 47.008778 1.865845 3,175 190 139 0
2019-12-12 09:41:27 GMT 47.010639 1.865915 3,175 173 142 0
2019-12-12 09:41:21 GMT 47.014549 1.864788 3,175 164 145 -128
2019-12-12 09:41:16 GMT 47.017410 1.863556 3,175 162 140 192
2019-12-12 09:41:11 GMT 47.020798 1.862045 3,175 162 136 0
2019-12-12 09:41:06 GMT 47.023766 1.860633 3,175 162 136 0
2019-12-12 09:40:54 GMT 47.031143 1.857101 3,175 161 136 0
2019-12-12 09:40:51 GMT 47.032928 1.856277 3,175 161 138 0
2019-12-12 09:40:38 GMT 47.040527 1.852432 3,175 160 138 0
2019-12-12 09:40:35 GMT 47.042633 1.851334 3,175 157 139 0
2019-12-12 09:40:31 GMT 47.045319 1.849647 3,175 154 139 64
2019-12-12 09:40:24 GMT 47.048767 1.846664 3,175 138 146 64
2019-12-12 09:40:20 GMT 47.050644 1.844124 3,150 129 149 64
2019-12-12 09:40:14 GMT 47.053024 1.838699 3,175 115 157 -128
2019-12-12 09:40:10 GMT 47.054302 1.834435 3,175 112 157 0
2019-12-12 09:40:03 GMT 47.056118 1.827886 3,175 112 157 0
2019-12-12 09:40:00 GMT 47.057049 1.824576 3,175 112 157 0
2019-12-12 09:39:53 GMT 47.058884 1.817825 3,175 112 156 0
2019-12-12 09:39:50 GMT 47.059704 1.814927 3,175 112 156 0
2019-12-12 09:39:39 GMT 47.062542 1.804575 3,175 111 157 0
2019-12-12 09:39:29 GMT 47.065109 1.794617 3,175 108 158 0
2019-12-12 09:39:19 GMT 47.067059 1.784292 3,175 95 162 0
2019-12-12 09:39:10 GMT 47.066826 1.772602 3,175 84 165 0
2019-12-12 09:38:58 GMT 47.066082 1.760489 3,175 85 165 0
2019-12-12 09:38:48 GMT 47.065475 1.749432 3,175 85 165 0
2019-12-12 09:38:38 GMT 47.064873 1.738305 3,175 85 165 0
2019-12-12 09:38:28 GMT 47.064175 1.727248 3,175 84 166 0
2019-12-12 09:38:25 GMT 47.063938 1.723163 3,175 83 167 0
2019-12-12 09:38:16 GMT 47.063103 1.713938 3,175 72 170 64
2019-12-12 09:38:13 GMT 47.062454 1.709610 3,175 72 170 128
2019-12-12 09:38:05 GMT 47.059662 1.701164 3,150 56 174 64
2019-12-12 09:38:00 GMT 47.057373 1.697319 3,175 43 175 -128
2019-12-12 09:37:57 GMT 47.055561 1.694852 3,175 41 176 -64
2019-12-12 09:37:48 GMT 47.050114 1.687951 3,175 40 183 0
2019-12-12 09:37:39 GMT 47.043316 1.679288 3,175 40 198 -128
2019-12-12 09:37:34 GMT 47.040390 1.675621 3,200 41 205 0
2019-12-12 09:37:28 GMT 47.035858 1.669853 3,175 40 214 256
2019-12-12 09:37:22 GMT 47.031830 1.664772 3,175 40 220 -64
2019-12-12 09:37:17 GMT 47.027256 1.659006 3,175 40 221 0
2019-12-12 09:37:08 GMT 47.020065 1.649940 3,175 40 233 -128
2019-12-12 09:36:57 GMT 47.011642 1.639297 3,200 40 243 -192
2019-12-12 09:36:47 GMT 47.002121 1.627281 3,300 40 259 -1152
2019-12-12 09:36:39 GMT 46.995602 1.619004 3,450 41 267 -1728
2019-12-12 09:36:36 GMT 46.992371 1.614922 3,550 41 269 -1792
2019-12-12 09:36:31 GMT 46.988022 1.609360 3,700 41 270 -2112
2019-12-12 09:36:26 GMT 46.982803 1.602699 3,925 41 272 -2624
2019-12-12 09:36:22 GMT 46.978611 1.597314 4,125 41 273 -2944
2019-12-12 09:36:16 GMT 46.973282 1.590340 4,425 42 274 -3008
2019-12-12 09:36:12 GMT 46.969482 1.585327 4,600 43 276 -2880
2019-12-12 09:36:06 GMT 46.963993 1.577594 4,950 46 279 -3008
2019-12-12 09:35:57 GMT 46.956390 1.564316 5,425 60 282 -3392
2019-12-12 09:35:51 GMT 46.953094 1.555389 5,675 66 282 -3392
2019-12-12 09:35:47 GMT 46.951050 1.548086 6,050 69 283 -3136
2019-12-12 09:35:41 GMT 46.948471 1.537743 6,200 70 282 -3008
2019-12-12 09:35:35 GMT 46.945652 1.526114 6,475 70 283 -2432
2019-12-12 09:35:32 GMT 46.944069 1.519635 6,625 70 284 -1792
2019-12-12 09:35:25 GMT 46.941055 1.507187 6,800 70 285 -1664
2019-12-12 09:35:15 GMT 46.936619 1.489070 7,000 70 289 -192
2019-12-12 09:35:04 GMT 46.931854 1.469765 7,000 70 291 64
2019-12-12 09:34:54 GMT 46.927277 1.451363 7,000 69 289 0
2019-12-12 09:34:51 GMT 46.925674 1.444977 7,000 69 289 0
2019-12-12 09:34:44 GMT 46.922421 1.432166 7,000 69 289 0
2019-12-12 09:34:40 GMT 46.920559 1.424842 7,000 69 290 0
2019-12-12 09:34:36 GMT 46.918606 1.417095 7,000 69 290 0
2019-12-12 09:34:31 GMT 46.916061 1.407280 7,000 68 289 0
2019-12-12 09:34:24 GMT 46.912903 1.395195 7,000 69 290 0
2019-12-12 09:34:19 GMT 46.910934 1.387711 7,000 68 289 0
2019-12-12 09:34:16 GMT 46.909153 1.380827 7,425 69 289 0
2019-12-12 09:34:13 GMT 46.907867 1.376038 7,425 69 289 0
2019-12-12 09:34:10 GMT 46.906403 1.370407 7,000 68 289 0
2019-12-12 09:34:04 GMT 46.903755 1.360262 7,000 69 289 0
2019-12-12 09:34:01 GMT 46.902077 1.353642 7,000 69 289 -64
2019-12-12 09:33:58 GMT 46.900963 1.349276 7,025 79 287 -320
2019-12-12 09:33:55 GMT 46.899490 1.343079 7,000 71 289 -64
2019-12-12 09:33:52 GMT 46.898392 1.338272 7,025 72 288 -128
2019-12-12 09:33:49 GMT 46.897144 1.332233 7,075 79 287 -320
2019-12-12 09:33:45 GMT 46.895187 1.319557 7,050 81 287 -448
2019-12-12 09:33:42 GMT 46.895187 1.319557 7,050 80 286 -384
2019-12-12 09:33:39 GMT 46.894535 1.313430 7,075 82 286 -512
2019-12-12 09:33:34 GMT 46.893677 1.304077 7,125 82 288 -960
2019-12-12 09:33:30 GMT 46.892670 1.292885 7,225 82 290 -1472
2019-12-12 09:33:25 GMT 46.891983 1.285126 7,275 82 291 -1600
2019-12-12 09:33:22 GMT 46.891556 1.279978 7,400 82 294 -1920
2019-12-12 09:33:18 GMT 46.890903 1.272653 7,525 82 296 -1920
2019-12-12 09:33:15 GMT 46.890198 1.264389 7,675 82 298 -1920
2019-12-12 09:33:12 GMT 46.889790 1.259273 7,725 82 299 -1920
2019-12-12 09:33:04 GMT 46.887924 1.238638 8,000 82 300 -1920
2019-12-12 09:33:01 GMT 46.887924 1.238638 8,075 82 300 -1920
2019-12-12 09:32:57 GMT 46.887085 1.229507 8,225 82 300 -1920
2019-12-12 09:32:54 GMT 46.886578 1.223356 8,275 82 300 -1920
2019-12-12 09:32:51 GMT 46.886063 1.217511 8,400 82 300 -1920
2019-12-12 09:32:48 GMT 46.885620 1.212410 8,500 82 301 -1984
2019-12-12 09:32:44 GMT 46.884712 1.202369 8,650 82 303 -1920
2019-12-12 09:32:41 GMT 46.884296 1.197087 8,725 82 303 -1984
2019-12-12 09:32:38 GMT 46.883881 1.192291 8,800 82 304 -1984
2019-12-12 09:32:32 GMT 46.882736 1.179039 9,025 82 305 -1984
2019-12-12 09:32:29 GMT 46.882107 1.171805 9,125 82 306 -1984
2019-12-12 09:32:23 GMT 46.881176 1.161100 9,325 82 308 -1984
2019-12-12 09:32:20 GMT 46.880665 1.154903 9,400 82 308 -1984
2019-12-12 09:32:15 GMT 46.879684 1.143564 9,575 82 310 -1984
2019-12-12 09:32:12 GMT 46.879223 1.138141 9,675 82 310 -1984
2019-12-12 09:32:08 GMT 46.878475 1.129409 9,800 82 310 -1984
2019-12-12 09:32:03 GMT 46.877544 1.118634 9,975 82 310 -2048
2019-12-12 09:32:00 GMT 46.877106 1.113533 10,050 82 310 -2048
2019-12-12 09:31:57 GMT 46.876556 1.107285 10,150 82 311 -2048
2019-12-12 09:31:54 GMT 46.875820 1.098422 10,425 82 312 -2048
2019-12-12 09:31:48 GMT 46.874844 1.087154 10,500 82 313 -2112
2019-12-12 09:31:45 GMT 46.874313 1.080986 10,600 82 314 -2048
2019-12-12 09:31:42 GMT 46.873821 1.075393 10,675 82 314 -2048
2019-12-12 09:31:39 GMT 46.873356 1.070181 10,775 82 314 -2048
2019-12-12 09:31:35 GMT 46.872425 1.060040 10,950 82 314 -1984
2019-12-12 09:31:32 GMT 46.871933 1.054688 11,025 82 314 -1984
2019-12-12 09:31:28 GMT 46.870834 1.043083 11,225 81 314 -1920
2019-12-12 09:31:23 GMT 46.870056 1.035118 11,625 81 313 -1920
2019-12-12 09:31:17 GMT 46.868820 1.022621 11,550 81 312 -2176
2019-12-12 09:31:14 GMT 46.868317 1.017197 11,750 81 312 -2496
2019-12-12 09:31:10 GMT 46.867538 1.009506 11,750 81 312 -2496
2019-12-12 09:31:07 GMT 46.866714 1.001565 12,025 81 313 -3264
2019-12-12 09:31:03 GMT 46.865723 0.991997 12,450 81 315 -2944
2019-12-12 09:30:57 GMT 46.864471 0.979726 12,600 81 318 -2368
2019-12-12 09:30:52 GMT 46.863556 0.970347 12,700 83 330 -832
2019-12-12 09:30:48 GMT 46.862881 0.962540 12,725 84 332 -960
2019-12-12 09:30:44 GMT 46.862324 0.952652 12,900 88 337 -2048
2019-12-12 09:30:41 GMT 46.862137 0.947102 12,900 88 337 -2048
2019-12-12 09:30:36 GMT 46.862041 0.934250 13,125 90 340 -1984
2019-12-12 09:30:31 GMT 46.862137 0.919762 13,325 90 344 -1728
2019-12-12 09:30:26 GMT 46.862183 0.910698 13,425 90 346 -1536
2019-12-12 09:30:23 GMT 46.862228 0.905702 13,475 90 348 -1344
2019-12-12 09:30:20 GMT 46.862274 0.898270 13,550 90 351 -1216
2019-12-12 09:30:16 GMT 46.862324 0.886871 13,650 90 356 -1216
2019-12-12 09:30:11 GMT 46.862411 0.875423 13,825 90 368 -1536
2019-12-12 09:30:07 GMT 46.862461 0.866753 13,875 90 367 -1472
2019-12-12 09:30:03 GMT 46.862549 0.856733 13,925 91 369 -1728
2019-12-12 09:29:59 GMT 46.862789 0.843613 14,125 92 372 -2496
2019-12-12 09:29:56 GMT 46.863022 0.837090 14,250 93 372 -3264
2019-12-12 09:29:52 GMT 46.863785 0.825180 14,525 99 374 -3136
2019-12-12 09:29:45 GMT 46.867352 0.803129 14,925 110 378 -2560
2019-12-12 09:29:42 GMT 46.870564 0.791438 15,150 115 382 -2176
2019-12-12 09:29:37 GMT 46.870564 0.791438 15,125 116 382 -2048
2019-12-12 09:29:33 GMT 46.873634 0.782987 15,275 122 388 -1728
2019-12-12 09:29:30 GMT 46.877289 0.774467 15,350 126 390 -1536
2019-12-12 09:29:26 GMT 46.880432 0.768198 15,425 128 392 -1472
2019-12-12 09:29:23 GMT 46.884808 0.760733 15,500 132 396 -1536
2019-12-12 09:29:19 GMT 46.889927 0.753338 15,600 137 401 -1600
2019-12-12 09:29:16 GMT 46.898262 0.743619 15,750 146 407 -1920
2019-12-12 09:29:10 GMT 46.902237 0.739792 15,950 152 409 -3072
2019-12-12 09:29:07 GMT 46.908188 0.734917 16,050 152 409 -3072
2019-12-12 09:29:04 GMT 46.912674 0.731895 16,300 159 409 -3840
2019-12-12 09:29:01 GMT 46.918419 0.728689 16,625 163 408 -4224
2019-12-12 09:28:58 GMT 46.924004 0.726154 16,625 164 408 -4352
2019-12-12 09:28:55 GMT 46.930428 0.723971 16,875 169 406 -4608
2019-12-12 09:28:50 GMT 46.937576 0.722420 17,200 174 404 -4608
2019-12-12 09:28:47 GMT 46.943161 0.721802 17,425 178 404 -4544
2019-12-12 09:28:44 GMT 46.950539 0.721717 17,675 184 402 -4288
2019-12-12 09:28:41 GMT 46.956123 0.722210 18,000 188 402 -4032
2019-12-12 09:28:38 GMT 46.963482 0.723619 18,200 192 401 -3968
2019-12-12 09:28:35 GMT 46.965958 0.724274 18,650 197 400 -3968
2019-12-12 09:28:32 GMT 46.977951 0.728874 18,725 200 400 -3968
2019-12-12 09:28:24 GMT 46.993240 0.737938 19,175 204 401 -3712
2019-12-12 09:28:20 GMT 46.993240 0.737938 19,300 205 402 -3520
2019-12-12 09:28:15 GMT 47.001839 0.743549 19,575 205 412 -2944
2019-12-12 09:28:12 GMT 47.006241 0.746452 19,875 205 409 -3008
2019-12-12 09:28:09 GMT 47.010727 0.749405 19,775 205 411 -2944
2019-12-12 09:28:04 GMT 47.022079 0.756889 20,475 205 417 -3456
2019-12-12 09:28:01 GMT 47.026558 0.759958 20,325 205 419 -3776
2019-12-12 09:27:55 GMT 47.036472 0.766578 20,725 205 422 -4096
2019-12-12 09:27:52 GMT 47.041534 0.770004 20,900 205 423 -4096
2019-12-12 09:27:49 GMT 47.046661 0.773506 21,100 205 425 -4096
2019-12-12 09:27:42 GMT 47.059570 0.782158 21,575 205 428 -3968
2019-12-12 09:27:38 GMT 47.067032 0.787033 21,850 205 432 -3968
2019-12-12 09:27:34 GMT 47.073578 0.791359 22,675 204 434 -4544
2019-12-12 09:27:31 GMT 47.078838 0.794748 22,675 204 434 -4544
2019-12-12 09:27:28 GMT 47.085262 0.798833 22,575 204 435 -4928
2019-12-12 09:27:25 GMT 47.092850 0.803692 22,925 204 436 -4992
2019-12-12 09:27:22 GMT 47.096466 0.805984 23,175 204 436 -5184
2019-12-12 09:27:19 GMT 47.101929 0.809397 23,350 204 436 -5248
2019-12-12 09:27:15 GMT 47.115921 0.818207 23,850 204 435 -5440
2019-12-12 09:27:12 GMT 47.115921 0.818207 24,025 204 436 -5120
2019-12-12 09:27:08 GMT 47.122055 0.821983 24,175 204 437 -4736
2019-12-12 09:27:03 GMT 47.137802 0.831802 24,725 203 443 -3712
2019-12-12 09:26:59 GMT 47.144806 0.836197 25,050 203 446 -4032
2019-12-12 09:26:53 GMT 47.150993 0.840032 25,350 203 449 -4096
2019-12-12 09:26:50 GMT 47.157028 0.843750 25,475 203 450 -4032
2019-12-12 09:26:47 GMT 47.160873 0.846085 25,600 203 451 -3904
2019-12-12 09:26:43 GMT 47.170033 0.851652 25,900 203 455 -3840
2019-12-12 09:26:40 GMT 47.175106 0.854680 26,125 202 457 -4096
2019-12-12 09:26:37 GMT 47.180878 0.858101 26,475 200 461 -4864
2019-12-12 09:26:32 GMT 47.191914 0.864187 26,825 200 461 -4928
2019-12-12 09:26:29 GMT 47.196854 0.866615 26,925 198 463 -5504
2019-12-12 09:26:26 GMT 47.202850 0.869293 27,175 196 464 -5824
2019-12-12 09:26:22 GMT 47.212536 0.872920 31,375 167 484 -5632
2019-12-12 09:26:19 GMT 47.217796 0.874540 27,900 191 466 -6080
2019-12-12 09:26:15 GMT 47.233578 0.878202 28,675 189 468 -5952
2019-12-12 09:26:12 GMT 47.233578 0.878202 28,525 188 467 -5888
2019-12-12 09:26:09 GMT 47.245495 0.879822 29,325 182 473 -5248
2019-12-12 09:26:06 GMT 47.254665 0.880385 29,325 182 473 -5248
2019-12-12 09:26:02 GMT 47.254665 0.880385 29,450 182 474 -5248
2019-12-12 09:25:59 GMT 47.261696 0.880526 29,775 178 477 -5184
2019-12-12 09:25:55 GMT 47.268723 0.880244 30,425 175 479 -5632
2019-12-12 09:25:51 GMT 47.279102 0.879258 31,375 167 484 -5632
2019-12-12 09:25:48 GMT 47.284515 0.878494 30,800 170 483 -5952
2019-12-12 09:25:42 GMT 47.298203 0.875542 31,550 168 484 -5888
2019-12-12 09:25:39 GMT 47.307404 0.872932 31,725 166 485 -5376
2019-12-12 09:25:36 GMT 47.323002 0.867357 32,075 165 486 -5184
2019-12-12 09:25:31 GMT 47.323002 0.867357 32,775 165 487 -5440
2019-12-12 09:25:28 GMT 47.328682 0.865103 32,850 164 486 -5312
2019-12-12 09:25:24 GMT 47.336922 0.861793 32,925 165 487 -5440
2019-12-12 09:25:21 GMT 47.343338 0.859337 33,400 166 484 -5440
2019-12-12 09:25:18 GMT 47.351494 0.856370 33,500 166 485 -5376
2019-12-12 09:25:11 GMT 47.366344 0.851652 34,200 170 479 -5504
2019-12-12 09:25:08 GMT 47.375095 0.849398 35,600 175 477 -4160
2019-12-12 09:25:00 GMT 47.390224 0.846652 36,975 179 479 0
2019-12-12 09:24:57 GMT 47.411125 0.845102 35,475 179 476 -1792
2019-12-12 09:24:51 GMT 47.411125 0.845102 35,800 179 476 -3648
2019-12-12 09:24:47 GMT 47.418995 0.845032 35,925 179 475 -3392
2019-12-12 09:24:43 GMT 47.427372 0.844961 36,150 179 475 -3072
2019-12-12 09:24:39 GMT 47.436447 0.844917 36,350 179 475 -2688
2019-12-12 09:24:36 GMT 47.443222 0.844849 36,400 179 475 -2496
2019-12-12 09:24:30 GMT 47.456863 0.844711 36,650 179 476 -1664
2019-12-12 09:24:27 GMT 47.464245 0.844609 36,750 179 481 64
2019-12-12 09:24:23 GMT 47.472389 0.844539 36,900 179 478 -896
2019-12-12 09:24:18 GMT 47.485291 0.844368 36,950 179 479 -704
2019-12-12 09:24:14 GMT 47.490917 0.844327 36,975 179 479 -384
2019-12-12 09:24:10 GMT 47.500877 0.844257 37,000 179 480 -128
2019-12-12 09:24:07 GMT 47.507538 0.844187 37,025 179 480 0
2019-12-12 09:23:59 GMT 47.525085 0.843975 37,000 179 481 64
2019-12-12 09:23:56 GMT 47.533173 0.843887 37,000 179 481 64
2019-12-12 09:23:48 GMT 47.549713 0.843764 36,975 179 480 64
2019-12-12 09:23:45 GMT 47.556702 0.843681 37,000 179 480 64
2019-12-12 09:23:42 GMT 47.571350 0.843544 36,975 179 480 64
2019-12-12 09:23:38 GMT 47.571350 0.843544 36,975 179 480 64
2019-12-12 09:23:35 GMT 47.578674 0.843544 36,975 179 480 64
2019-12-12 09:23:31 GMT 47.586639 0.843475 36,975 179 479 0
2019-12-12 09:23:28 GMT 47.603256 0.843338 36,975 179 480 64
2019-12-12 09:23:25 GMT 47.603256 0.843338 36,975 179 480 64
2019-12-12 09:23:20 GMT 47.611450 0.843269 36,975 179 479 0
2019-12-12 09:23:17 GMT 47.618134 0.843269 36,975 179 479 0
2019-12-12 09:23:14 GMT 47.625546 0.843201 36,975 179 479 0
2019-12-12 09:23:10 GMT 47.635925 0.843060 36,975 179 479 0
2019-12-12 09:23:07 GMT 47.641468 0.843060 36,975 179 479 0
2019-12-12 09:23:04 GMT 47.649895 0.842989 36,975 179 479 0
2019-12-12 09:22:57 GMT 47.672005 0.842778 36,975 179 479 0
2019-12-12 09:22:54 GMT 47.672005 0.842778 36,975 179 479 0
2019-12-12 09:22:50 GMT 47.677128 0.842708 36,975 179 479 0
2019-12-12 09:22:46 GMT 47.687164 0.842651 36,975 179 479 0
2019-12-12 09:22:43 GMT 47.696117 0.842567 36,975 179 479 0
2019-12-12 09:22:38 GMT 47.704193 0.842445 36,975 179 479 0
2019-12-12 09:22:35 GMT 47.711288 0.842377 36,975 179 479 0
2019-12-12 09:22:32 GMT 47.716927 0.842356 36,975 179 479 0
2019-12-12 09:22:29 GMT 47.726238 0.842285 36,975 179 479 0
2019-12-12 09:22:26 GMT 47.730892 0.842215 36,975 179 479 0
2019-12-12 09:22:23 GMT 47.737839 0.842171 36,975 179 480 -64
2019-12-12 09:22:20 GMT 47.745392 0.842102 36,975 179 479 0
2019-12-12 09:22:16 GMT 47.753239 0.842003 36,975 179 480 -64
2019-12-12 09:22:13 GMT 47.762192 0.841965 36,975 179 480 0
2019-12-12 09:22:10 GMT 47.765202 0.841933 36,975 179 480 0
2019-12-12 09:22:07 GMT 47.774281 0.841863 37,000 179 480 -64
2019-12-12 09:22:04 GMT 47.779819 0.841792 37,000 179 480 -64
2019-12-12 09:22:01 GMT 47.788788 0.841690 37,000 179 480 0
2019-12-12 09:21:58 GMT 47.794018 0.841651 37,000 179 480 0
2019-12-12 09:21:55 GMT 47.800629 0.841581 37,000 179 480 0
2019-12-12 09:21:52 GMT 47.808170 0.841510 37,000 179 480 0
2019-12-12 09:21:49 GMT 47.814056 0.841484 37,000 179 480 0
2019-12-12 09:21:46 GMT 47.821068 0.841370 37,000 179 480 -64
2019-12-12 09:21:42 GMT 47.829117 0.841347 37,000 179 480 0
2019-12-12 09:21:38 GMT 47.845646 0.841158 37,000 179 480 0
2019-12-12 09:21:35 GMT 47.845646 0.841158 37,000 179 480 0
2019-12-12 09:21:31 GMT 47.853516 0.841072 37,000 179 480 0
2019-12-12 09:21:27 GMT 47.861938 0.841003 37,000 179 480 64
2019-12-12 09:21:24 GMT 47.877686 0.840866 37,000 180 480 -64
2019-12-12 09:21:21 GMT 47.877686 0.840866 37,000 179 480 0
2019-12-12 09:21:16 GMT 47.886337 0.840866 37,000 179 480 0
2019-12-12 09:21:13 GMT 47.892334 0.840866 37,000 179 480 -64
2019-12-12 09:21:08 GMT 47.904282 0.840797 37,000 179 480 -64
2019-12-12 09:21:05 GMT 47.910816 0.840806 37,000 180 480 -64
2019-12-12 09:21:02 GMT 47.916504 0.840797 37,000 181 480 0
2019-12-12 09:20:58 GMT 47.926895 0.840866 36,975 181 480 0
2019-12-12 09:20:55 GMT 47.933025 0.840877 37,000 181 480 0
2019-12-12 09:20:52 GMT 47.943100 0.841003 37,000 181 480 64
2019-12-12 09:20:49 GMT 47.955276 0.841072 37,000 181 480 64
2019-12-12 09:20:43 GMT 47.960587 0.841141 36,975 179 480 128
2019-12-12 09:20:39 GMT 47.968033 0.841088 36,975 168 487 -128
2019-12-12 09:20:36 GMT 47.980591 0.840454 36,975 176 482 64
2019-12-12 09:20:30 GMT 47.988701 0.839468 36,975 174 484 0
2019-12-12 09:20:27 GMT 47.995823 0.838130 36,975 171 486 -64
2019-12-12 09:20:23 GMT 48.014328 0.833038 37,000 166 488 -128
2019-12-12 09:20:19 GMT 48.014328 0.833038 37,000 166 488 -128
2019-12-12 09:20:15 GMT 48.027573 0.827989 37,000 165 489 -64
2019-12-12 09:20:09 GMT 48.034973 0.825031 37,000 164 489 0
2019-12-12 09:20:05 GMT 48.042984 0.821846 37,000 164 489 0
2019-12-12 09:20:02 GMT 48.051498 0.818413 37,000 164 489 0
2019-12-12 09:19:58 GMT 48.060425 0.814842 37,000 164 489 0
2019-12-12 09:19:55 GMT 48.064819 0.813126 37,000 165 490 0
2019-12-12 09:19:52 GMT 48.073658 0.809537 37,000 165 490 0
2019-12-12 09:19:49 GMT 48.077728 0.807976 37,000 165 490 0
2019-12-12 09:19:45 GMT 48.087482 0.804044 37,000 165 490 0
2019-12-12 09:19:39 GMT 48.100937 0.798637 37,000 165 490 0
2019-12-12 09:19:35 GMT 48.108479 0.795664 37,000 165 491 0
2019-12-12 09:19:32 GMT 48.116161 0.792565 37,000 165 491 0
2019-12-12 09:19:26 GMT 48.130737 0.786758 37,000 165 491 0
2019-12-12 09:19:23 GMT 48.135361 0.784904 37,000 165 491 -64
2019-12-12 09:19:19 GMT 48.145889 0.780647 37,000 164 491 -64
2019-12-12 09:19:16 GMT 48.150055 0.778999 37,000 164 491 -64
2019-12-12 09:19:13 GMT 48.155731 0.776733 37,000 164 491 0
2019-12-12 09:19:10 GMT 48.163651 0.773550 37,000 164 491 0
2019-12-12 09:19:06 GMT 48.172623 0.769958 37,000 164 491 0
2019-12-12 09:19:03 GMT 48.179565 0.767164 37,000 164 491 64
2019-12-12 09:19:00 GMT 48.185894 0.764634 37,000 164 491 0
2019-12-12 09:18:56 GMT 48.196648 0.760297 37,000 164 491 0
2019-12-12 09:18:53 GMT 48.201370 0.758409 37,000 164 491 0
2019-12-12 09:18:50 GMT 48.208054 0.755744 37,000 164 491 0
2019-12-12 09:18:46 GMT 48.216434 0.752347 37,000 164 491 -64
2019-12-12 09:18:43 GMT 48.222767 0.749817 37,000 164 491 -64
2019-12-12 09:18:40 GMT 48.231903 0.746155 37,000 164 491 -64
2019-12-12 09:18:36 GMT 48.240234 0.742774 37,000 164 491 -64
2019-12-12 09:18:33 GMT 48.247696 0.739746 37,025 164 491 -64
2019-12-12 09:18:29 GMT 48.253418 0.737422 37,025 164 491 -64
2019-12-12 09:18:25 GMT 48.263489 0.733408 37,025 164 491 0
2019-12-12 09:18:22 GMT 48.269085 0.731097 37,025 165 491 0
2019-12-12 09:18:19 GMT 48.276115 0.728278 37,025 165 491 0
2019-12-12 09:18:15 GMT 48.286449 0.724158 37,000 165 492 0
2019-12-12 09:18:12 GMT 48.289707 0.722857 37,000 165 492 0
2019-12-12 09:18:09 GMT 48.298084 0.719532 37,000 165 491 64
2019-12-12 09:18:06 GMT 48.304779 0.716787 37,000 165 491 64
2019-12-12 09:18:02 GMT 48.315403 0.712521 37,000 165 491 64
2019-12-12 09:17:59 GMT 48.326622 0.708040 37,000 165 491 0
2019-12-12 09:17:56 GMT 48.326622 0.708040 37,000 165 491 0
2019-12-12 09:17:53 GMT 48.335190 0.704643 37,000 165 491 0
2019-12-12 09:17:50 GMT 48.339798 0.702764 37,000 165 491 0
2019-12-12 09:17:47 GMT 48.345291 0.700595 37,000 164 492 0
2019-12-12 09:17:44 GMT 48.359348 0.694885 37,000 164 492 0
2019-12-12 09:17:41 GMT 48.365913 0.692283 37,000 164 492 0
2019-12-12 09:17:38 GMT 48.365913 0.692283 37,000 164 492 0
2019-12-12 09:17:35 GMT 48.372391 0.689674 37,000 164 492 0
2019-12-12 09:17:31 GMT 48.381508 0.685923 37,000 164 492 0
2019-12-12 09:17:28 GMT 48.390198 0.682420 37,000 164 492 0
2019-12-12 09:17:24 GMT 48.397987 0.679273 37,000 164 492 0
2019-12-12 09:17:21 GMT 48.410511 0.674214 37,000 164 492 0
2019-12-12 09:17:18 GMT 48.416004 0.671973 37,000 164 492 0
2019-12-12 09:17:15 GMT 48.416004 0.671973 37,000 164 492 0
2019-12-12 09:17:12 GMT 48.423386 0.669039 37,000 164 492 0
2019-12-12 09:17:09 GMT 48.431946 0.665588 37,000 164 491 0
2019-12-12 09:17:05 GMT 48.437668 0.663264 37,000 164 492 64
2019-12-12 09:17:02 GMT 48.445473 0.660119 37,000 164 491 0
2019-12-12 09:16:58 GMT 48.455658 0.655940 37,000 164 491 0
2019-12-12 09:16:53 GMT 48.470936 0.649783 37,000 164 491 0
2019-12-12 09:16:47 GMT 48.478455 0.646644 37,000 164 491 0
2019-12-12 09:16:43 GMT 48.486603 0.643404 37,000 164 492 0
2019-12-12 09:16:40 GMT 48.493046 0.640749 37,000 164 491 0
2019-12-12 09:16:35 GMT 48.504547 0.636080 37,000 164 491 0
2019-12-12 09:16:32 GMT 48.511551 0.633193 37,000 164 491 0
2019-12-12 09:16:28 GMT 48.519012 0.630094 37,000 164 491 0
2019-12-12 09:16:25 GMT 48.526016 0.627207 37,000 164 491 0
2019-12-12 09:16:22 GMT 48.539227 0.621739 37,000 164 490 0
2019-12-12 09:16:19 GMT 48.539227 0.621739 37,000 164 491 -64
2019-12-12 09:16:14 GMT 48.549591 0.617488 37,000 164 491 0
2019-12-12 09:16:11 GMT 48.556732 0.614584 37,000 164 491 0
2019-12-12 09:16:08 GMT 48.562500 0.612206 37,000 164 491 0
2019-12-12 09:16:04 GMT 48.571243 0.608614 37,000 164 491 -64
2019-12-12 09:16:01 GMT 48.584057 0.603381 37,000 164 491 0
2019-12-12 09:15:55 GMT 48.592621 0.599839 37,000 164 491 0
2019-12-12 09:15:52 GMT 48.597836 0.597743 37,025 164 491 0
2019-12-12 09:15:49 GMT 48.603748 0.595286 37,025 164 491 0
2019-12-12 09:15:46 GMT 48.610245 0.592628 37,000 164 490 0
2019-12-12 09:15:43 GMT 48.618988 0.589036 37,000 164 490 0
2019-12-12 09:15:39 GMT 48.627731 0.585515 37,000 164 490 64
2019-12-12 09:15:34 GMT 48.637684 0.581480 37,000 164 490 0
2019-12-12 09:15:31 GMT 48.643829 0.578951 37,000 164 490 0
2019-12-12 09:15:28 GMT 48.650394 0.576276 37,000 164 490 0
2019-12-12 09:15:24 GMT 48.667477 0.569338 37,000 164 490 0
2019-12-12 09:15:21 GMT 48.667477 0.569338 37,000 164 490 0
2019-12-12 09:15:18 GMT 48.672409 0.567345 37,000 164 489 64
2019-12-12 09:15:15 GMT 48.681442 0.563700 37,000 164 487 0
2019-12-12 09:15:12 GMT 48.687012 0.561430 37,000 164 488 0
2019-12-12 09:15:09 GMT 48.693558 0.558753 37,000 164 487 0
2019-12-12 09:15:06 GMT 48.699322 0.556400 37,000 164 486 0
2019-12-12 09:15:03 GMT 48.705505 0.553894 37,000 164 486 0
2019-12-12 09:15:00 GMT 48.711548 0.551429 37,000 164 484 0
2019-12-12 09:14:56 GMT 48.720734 0.547654 37,000 164 483 0
2019-12-12 09:14:53 GMT 48.727341 0.544950 37,000 164 483 0
2019-12-12 09:14:50 GMT 48.733677 0.542305 37,000 164 483 0
2019-12-12 09:14:46 GMT 48.748711 0.536089 37,000 164 436 320
2019-12-12 09:14:43 GMT 48.748711 0.536089 37,000 164 480 0
2019-12-12 09:14:40 GMT 48.755035 0.533471 37,000 164 480 0
2019-12-12 09:14:36 GMT 48.769428 0.527488 37,000 164 436 320
2019-12-12 09:14:33 GMT 48.769428 0.527488 37,000 164 476 0
2019-12-12 09:14:30 GMT 48.776321 0.524668 37,000 164 476 0
2019-12-12 09:14:27 GMT 48.782555 0.522067 37,000 164 475 0
2019-12-12 09:14:21 GMT 48.795685 0.516647 37,000 164 471 0
2019-12-12 09:14:18 GMT 48.807587 0.511709 37,000 164 472 0
2019-12-12 09:14:11 GMT 48.818214 0.507323 37,000 164 470 0
2019-12-12 09:14:08 GMT 48.823746 0.505019 37,000 164 469 0
2019-12-12 09:14:05 GMT 48.829193 0.502765 37,000 164 461 0
2019-12-12 09:14:02 GMT 48.835999 0.499950 37,000 164 468 0
2019-12-12 09:13:58 GMT 48.845490 0.496005 37,000 164 467 0
2019-12-12 09:13:55 GMT 48.851120 0.493681 37,000 164 465 0
2019-12-12 09:13:51 GMT 48.857758 0.490934 37,000 164 465 0
2019-12-12 09:13:48 GMT 48.863983 0.488328 37,000 164 464 0
2019-12-12 09:13:44 GMT 48.871937 0.485061 37,000 164 463 0
2019-12-12 09:13:41 GMT 48.878548 0.482314 37,000 164 462 0
2019-12-12 09:13:38 GMT 48.885296 0.479495 37,000 164 460 0
2019-12-12 09:13:33 GMT 48.894745 0.475592 37,000 164 457 -64
2019-12-12 09:13:30 GMT 48.900890 0.473063 37,000 164 458 -64
2019-12-12 09:13:27 GMT 48.905914 0.471004 37,000 164 457 -64
2019-12-12 09:13:24 GMT 48.921936 0.464384 37,000 164 442 192
2019-12-12 09:13:20 GMT 48.921936 0.464384 37,000 164 454 0
2019-12-12 09:13:17 GMT 48.927101 0.462293 37,000 164 453 0
2019-12-12 09:13:14 GMT 48.933384 0.459691 37,000 164 452 0
2019-12-12 09:13:10 GMT 48.944183 0.455299 37,000 164 451 0
2019-12-12 09:13:06 GMT 48.949402 0.453116 37,000 164 449 0
2019-12-12 09:13:02 GMT 48.960022 0.448749 37,000 164 448 0
2019-12-12 09:12:59 GMT 48.962814 0.447552 37,000 164 447 0
2019-12-12 09:12:56 GMT 48.969883 0.444657 37,000 164 445 0
2019-12-12 09:12:53 GMT 48.975540 0.442270 37,000 164 445 0
2019-12-12 09:12:50 GMT 48.981613 0.439742 37,000 164 445 0
2019-12-12 09:12:47 GMT 48.987671 0.437270 37,000 164 443 64
2019-12-12 09:12:44 GMT 48.993805 0.434664 37,000 164 443 128
2019-12-12 09:12:39 GMT 49.003876 0.430509 36,975 164 442 192
2019-12-12 09:12:36 GMT 49.020172 0.423678 36,950 164 441 384
2019-12-12 09:12:31 GMT 49.020172 0.423678 36,925 164 440 512
2019-12-12 09:12:27 GMT 49.027328 0.420733 36,900 164 440 512
2019-12-12 09:12:24 GMT 49.035007 0.417553 36,850 164 440 512
2019-12-12 09:12:21 GMT 49.037754 0.416396 36,850 164 439 448
2019-12-12 09:12:18 GMT 49.044479 0.413607 36,825 164 439 320
2019-12-12 09:12:15 GMT 49.055649 0.408889 36,800 164 438 256
2019-12-12 09:12:12 GMT 49.055649 0.408889 36,775 164 438 256
2019-12-12 09:12:09 GMT 49.064804 0.405086 36,775 164 437 256
2019-12-12 09:12:05 GMT 49.069782 0.402952 36,775 164 437 256
2019-12-12 09:12:00 GMT 49.078629 0.399311 36,750 164 436 320
2019-12-12 09:11:57 GMT 49.091858 0.393747 36,700 164 435 384
2019-12-12 09:11:51 GMT 49.097076 0.391634 36,700 164 435 384
2019-12-12 09:11:48 GMT 49.102787 0.389220 36,675 164 434 384
2019-12-12 09:11:45 GMT 49.117081 0.383293 36,575 164 421 1088
2019-12-12 09:11:42 GMT 49.117081 0.383293 36,625 164 431 256
2019-12-12 09:11:39 GMT 49.120834 0.381704 36,625 164 432 384
2019-12-12 09:11:35 GMT 49.128487 0.378595 36,575 164 432 320
2019-12-12 09:11:31 GMT 49.136261 0.375366 36,575 164 431 128
2019-12-12 09:11:28 GMT 49.143723 0.372268 36,575 164 429 128
2019-12-12 09:11:25 GMT 49.147751 0.370577 36,575 164 428 0
2019-12-12 09:11:21 GMT 49.160278 0.365440 36,575 164 426 0
2019-12-12 09:11:18 GMT 49.160278 0.365440 36,575 164 424 192
2019-12-12 09:11:12 GMT 49.171314 0.360959 36,550 164 424 128
2019-12-12 09:11:08 GMT 49.180019 0.357345 36,550 164 424 192
2019-12-12 09:11:05 GMT 49.185745 0.354943 36,525 164 422 320
2019-12-12 09:11:01 GMT 49.193115 0.351915 36,500 164 422 384
2019-12-12 09:10:58 GMT 49.198872 0.349539 36,500 164 426 2624
2019-12-12 09:10:55 GMT 49.203827 0.347407 36,500 164 421 448
2019-12-12 09:10:51 GMT 49.213394 0.343393 36,450 164 421 640
2019-12-12 09:10:48 GMT 49.217148 0.341844 36,425 164 421 768
2019-12-12 09:10:45 GMT 49.231831 0.335661 36,225 164 421 1536
2019-12-12 09:10:40 GMT 49.231831 0.335661 36,075 164 431 3328
2019-12-12 09:10:37 GMT 49.237564 0.333252 36,175 164 423 1984
2019-12-12 09:10:34 GMT 49.248322 0.328674 35,925 164 424 2432
2019-12-12 09:10:31 GMT 49.248322 0.328674 35,925 164 433 3584
2019-12-12 09:10:28 GMT 49.255188 0.325787 35,750 164 429 3072
2019-12-12 09:10:25 GMT 49.262554 0.322651 35,475 164 433 3584
2019-12-12 09:10:19 GMT 49.280182 0.315294 35,175 164 439 3264
2019-12-12 09:10:13 GMT 49.289658 0.311279 34,800 164 446 3072
2019-12-12 09:10:10 GMT 49.289658 0.311279 34,800 164 446 3072
2019-12-12 09:10:07 GMT 49.296120 0.308557 34,650 164 449 3136
2019-12-12 09:10:04 GMT 49.301937 0.306099 34,525 164 456 3200
2019-12-12 09:10:01 GMT 49.309433 0.302919 33,225 164 466 2432
2019-12-12 09:09:58 GMT 49.316620 0.299870 34,075 164 458 3072
2019-12-12 09:09:54 GMT 49.322655 0.297354 33,900 164 465 2560
2019-12-12 09:09:50 GMT 49.330170 0.294166 33,725 164 463 2688
2019-12-12 09:09:46 GMT 49.341274 0.289475 33,500 164 469 1792
2019-12-12 09:09:40 GMT 49.349899 0.285856 33,300 164 469 1536
2019-12-12 09:09:37 GMT 49.359741 0.281701 33,275 164 470 1216
2019-12-12 09:09:34 GMT 49.364040 0.279935 33,150 164 470 1216
2019-12-12 09:09:30 GMT 49.372513 0.276348 33,150 164 470 0
2019-12-12 09:09:27 GMT 49.378418 0.273884 33,050 164 470 1472
2019-12-12 09:09:24 GMT 49.385101 0.271067 32,975 164 472 1344
2019-12-12 09:09:21 GMT 49.393066 0.267686 32,900 164 472 1344
2019-12-12 09:09:17 GMT 49.398674 0.265334 32,750 164 472 1280
2019-12-12 09:09:14 GMT 49.413383 0.259046 32,725 164 472 1280
2019-12-12 09:09:08 GMT 49.420738 0.255938 32,625 164 472 1152
2019-12-12 09:09:05 GMT 49.429871 0.252107 32,575 164 472 1216
2019-12-12 09:08:59 GMT 49.437469 0.248927 32,500 164 472 1216
2019-12-12 09:08:56 GMT 49.444111 0.246153 32,450 164 473 1280
2019-12-12 09:08:53 GMT 49.451046 0.243184 32,250 164 473 1664
2019-12-12 09:08:50 GMT 49.456493 0.240883 32,250 164 473 1664
2019-12-12 09:08:47 GMT 49.464203 0.237579 32,200 164 474 1728
2019-12-12 09:08:44 GMT 49.468643 0.235700 31,675 164 474 1792
2019-12-12 09:08:40 GMT 49.477207 0.232049 31,950 164 476 2176
2019-12-12 09:08:37 GMT 49.484142 0.229080 31,900 164 476 2304
2019-12-12 09:08:34 GMT 49.490337 0.226482 31,700 164 478 2752
2019-12-12 09:08:31 GMT 49.502335 0.221317 31,450 164 481 3008
2019-12-12 09:08:25 GMT 49.520084 0.213788 30,700 164 491 1984
2019-12-12 09:08:21 GMT 49.520084 0.213788 31,075 164 489 2304
2019-12-12 09:08:18 GMT 49.533768 0.207998 30,825 164 489 2304
2019-12-12 09:08:15 GMT 49.533768 0.207998 30,825 164 491 2048
2019-12-12 09:08:12 GMT 49.539597 0.205560 30,625 164 492 1728
2019-12-12 09:08:08 GMT 49.548340 0.201874 30,625 164 492 1792
2019-12-12 09:08:05 GMT 49.552505 0.200139 30,600 164 492 1664
2019-12-12 09:08:02 GMT 49.559837 0.197012 30,425 164 493 1600
2019-12-12 09:07:58 GMT 49.569103 0.193152 30,425 164 492 1408
2019-12-12 09:07:55 GMT 49.575432 0.190479 30,350 164 492 1472
2019-12-12 09:07:52 GMT 49.581577 0.187881 30,175 164 493 1536
2019-12-12 09:07:49 GMT 49.590378 0.184244 30,150 164 493 1600
2019-12-12 09:07:46 GMT 49.594666 0.182431 30,100 164 493 1536
2019-12-12 09:07:43 GMT 49.601715 0.179467 30,075 164 493 1536
2019-12-12 09:07:40 GMT 49.607323 0.177192 29,975 164 494 1408
2019-12-12 09:07:37 GMT 49.615585 0.173685 29,875 164 494 1472
2019-12-12 09:07:34 GMT 49.620209 0.171806 29,650 164 494 1408
2019-12-12 09:07:31 GMT 49.628036 0.168507 29,725 164 494 1472
2019-12-12 09:07:28 GMT 49.633995 0.166057 29,375 164 494 1472
2019-12-12 09:07:25 GMT 49.642143 0.162642 29,575 164 494 1408
2019-12-12 09:07:20 GMT 49.650604 0.159085 29,500 164 494 1408
2019-12-12 09:07:17 GMT 49.665047 0.152992 29,350 164 494 1536
2019-12-12 09:07:11 GMT 49.672668 0.149761 29,200 164 494 1472
2019-12-12 09:07:08 GMT 49.678268 0.147425 29,175 164 494 1216
2019-12-12 09:07:05 GMT 49.684879 0.144530 29,150 164 495 1088
2019-12-12 09:07:02 GMT 49.691486 0.141709 29,100 164 494 576
2019-12-12 09:06:59 GMT 49.707642 0.134583 29,000 163 493 0
2019-12-12 09:06:56 GMT 49.707642 0.134583 29,000 163 493 0
2019-12-12 09:06:52 GMT 49.721096 0.128570 29,000 163 493 0
2019-12-12 09:06:49 GMT 49.721096 0.128570 29,000 163 493 0
2019-12-12 09:06:45 GMT 49.728653 0.125114 29,000 163 493 0
2019-12-12 09:06:42 GMT 49.741020 0.119513 29,000 163 493 0
2019-12-12 09:06:36 GMT 49.755451 0.112981 29,000 163 493 0
2019-12-12 09:06:33 GMT 49.755451 0.112981 29,000 163 492 0
2019-12-12 09:06:29 GMT 49.764084 0.109068 29,000 163 493 0
2019-12-12 09:06:26 GMT 49.770218 0.106322 29,000 163 492 0
2019-12-12 09:06:23 GMT 49.779285 0.102217 29,000 163 492 0
2019-12-12 09:06:19 GMT 49.784866 0.099672 29,000 163 493 0
2019-12-12 09:06:16 GMT 49.791412 0.096709 29,000 163 493 64
2019-12-12 09:06:13 GMT 49.806656 0.089770 29,000 163 492 0
2019-12-12 09:06:10 GMT 49.806656 0.089770 29,000 163 493 0
2019-12-12 09:06:07 GMT 49.812244 0.087223 29,000 163 493 64
2019-12-12 09:06:03 GMT 49.819977 0.083698 29,000 163 493 128
2019-12-12 09:06:00 GMT 49.827850 0.080157 28,975 163 493 192
2019-12-12 09:05:57 GMT 49.834076 0.077350 28,975 163 493 128
2019-12-12 09:05:53 GMT 49.849503 0.070327 28,950 163 493 384
2019-12-12 09:05:50 GMT 49.849503 0.070327 28,950 163 493 384
2019-12-12 09:05:47 GMT 49.854996 0.067869 28,925 163 494 512
2019-12-12 09:05:43 GMT 49.870853 0.060648 28,850 163 493 1152
2019-12-12 09:05:40 GMT 49.878433 0.057245 28,800 163 493 1344
2019-12-12 09:05:36 GMT 49.878433 0.057245 28,675 163 493 1280
2019-12-12 09:05:32 GMT 49.887634 0.053052 28,700 163 493 1152
2019-12-12 09:05:29 GMT 49.894733 0.049810 28,550 163 493 1024
2019-12-12 09:05:26 GMT 49.901642 0.046692 28,525 163 493 1024
2019-12-12 09:05:23 GMT 49.910469 0.042683 28,500 163 493 960
2019-12-12 09:05:20 GMT 49.915192 0.040548 28,475 163 492 1024
2019-12-12 09:05:16 GMT 49.923248 0.036862 28,400 163 490 832
2019-12-12 09:05:13 GMT 49.931717 0.033031 28,325 163 490 832
2019-12-12 09:05:10 GMT 49.938263 0.030068 28,300 163 489 768
2019-12-12 09:05:06 GMT 49.944687 0.027169 28,275 163 489 704
2019-12-12 09:05:03 GMT 49.950970 0.024348 28,225 163 487 576
2019-12-12 09:05:00 GMT 49.959915 0.020238 28,175 163 487 512
2019-12-12 09:04:57 GMT 49.965317 0.017781 28,175 163 485 512
2019-12-12 09:04:54 GMT 49.972942 0.014327 28,125 163 484 512
2019-12-12 09:04:51 GMT 49.979279 0.011420 28,100 163 482 448
2019-12-12 09:04:48 GMT 49.984406 0.009107 28,100 163 481 448
2019-12-12 09:04:45 GMT 49.998505 0.002674 28,025 163 479 448
2019-12-12 09:04:42 GMT 49.998505 0.002674 28,050 163 477 320
2019-12-12 09:04:39 GMT 50.002831 0.000668 28,025 163 477 320
2019-12-12 09:04:36 GMT 50.009903 -0.002530 28,025 163 477 320
2019-12-12 09:04:33 GMT 50.015396 -0.005059 27,975 163 475 256
2019-12-12 09:04:30 GMT 50.020752 -0.007497 28,000 163 474 256
2019-12-12 09:04:27 GMT 50.030388 -0.011877 27,975 163 468 256
2019-12-12 09:04:24 GMT 50.034763 -0.013881 27,975 163 468 256
2019-12-12 09:04:20 GMT 50.045471 -0.018792 27,950 163 467 256
2019-12-12 09:04:16 GMT 50.051880 -0.021684 27,950 163 466 256
2019-12-12 09:04:13 GMT 50.062649 -0.026649 27,925 163 461 384
2019-12-12 09:04:07 GMT 50.076149 -0.032811 27,825 163 436 512
2019-12-12 09:04:04 GMT 50.076149 -0.032811 27,850 163 458 896
2019-12-12 09:04:01 GMT 50.082962 -0.035922 27,800 163 458 1088
2019-12-12 09:03:58 GMT 50.086990 -0.037802 27,675 163 456 1280
2019-12-12 09:03:55 GMT 50.094212 -0.041124 27,675 163 456 1280
2019-12-12 09:03:52 GMT 50.100449 -0.044020 27,650 163 456 1216
2019-12-12 09:03:49 GMT 50.105209 -0.046186 27,575 163 455 1280
2019-12-12 09:03:46 GMT 50.111069 -0.048860 27,475 163 454 1344
2019-12-12 09:03:43 GMT 50.119537 -0.052763 27,400 163 454 1344
2019-12-12 09:03:40 GMT 50.124470 -0.055006 27,375 163 454 1344
2019-12-12 09:03:37 GMT 50.132217 -0.058618 27,225 163 453 1408
2019-12-12 09:03:33 GMT 50.138947 -0.061687 26,875 163 451 1408
2019-12-12 09:03:30 GMT 50.149063 -0.066352 27,000 163 452 1216
2019-12-12 09:03:24 GMT 50.156406 -0.069704 27,000 163 451 1280
2019-12-12 09:03:21 GMT 50.161804 -0.072228 26,900 163 450 1408
2019-12-12 09:03:18 GMT 50.168182 -0.075123 26,725 163 449 1344
2019-12-12 09:03:15 GMT 50.173279 -0.077483 26,800 163 450 1344
2019-12-12 09:03:11 GMT 50.184940 -0.082843 26,700 163 449 1280
2019-12-12 09:03:08 GMT 50.189804 -0.085072 26,575 163 446 1024
2019-12-12 09:03:05 GMT 50.194748 -0.087385 26,575 163 447 1088
2019-12-12 09:03:02 GMT 50.207520 -0.093235 26,500 163 446 896
2019-12-12 09:02:59 GMT 50.207520 -0.093235 26,425 163 444 704
2019-12-12 09:02:56 GMT 50.213333 -0.095914 26,425 163 443 576
2019-12-12 09:02:53 GMT 50.217201 -0.097689 26,400 163 443 576
2019-12-12 09:02:50 GMT 50.226189 -0.101846 26,350 163 440 448
2019-12-12 09:02:47 GMT 50.229218 -0.103214 26,325 163 436 512
2019-12-12 09:02:43 GMT 50.237778 -0.107189 26,325 163 436 512
2019-12-12 09:02:40 GMT 50.244434 -0.110309 26,275 163 435 704
2019-12-12 09:02:36 GMT 50.253048 -0.114317 26,225 163 431 1152
2019-12-12 09:02:32 GMT 50.258148 -0.116657 26,025 163 431 1344
2019-12-12 09:02:29 GMT 50.264832 -0.119765 26,025 163 430 2048
2019-12-12 09:02:26 GMT 50.269852 -0.122112 25,800 163 430 2176
2019-12-12 09:02:23 GMT 50.275497 -0.124680 25,650 163 430 2240
2019-12-12 09:02:20 GMT 50.281219 -0.127355 25,750 163 430 2240
2019-12-12 09:02:17 GMT 50.289047 -0.130969 25,325 163 431 2368
2019-12-12 09:02:14 GMT 50.292755 -0.132727 25,400 163 431 2368
2019-12-12 09:02:11 GMT 50.299942 -0.136028 25,350 163 432 2304
2019-12-12 09:02:08 GMT 50.305115 -0.138413 25,300 163 432 2304
2019-12-12 09:02:05 GMT 50.311749 -0.141412 25,125 163 433 2112
2019-12-12 09:02:02 GMT 50.315987 -0.143342 25,050 163 434 2112
2019-12-12 09:01:59 GMT 50.321640 -0.145930 24,925 163 433 2176
2019-12-12 09:01:56 GMT 50.327591 -0.148605 24,725 163 433 2048
2019-12-12 09:01:53 GMT 50.333176 -0.151134 24,750 163 433 2048
2019-12-12 09:01:50 GMT 50.346863 -0.157278 24,600 164 433 1856
2019-12-12 09:01:47 GMT 50.346863 -0.157278 24,200 164 430 1152
2019-12-12 09:01:43 GMT 50.352715 -0.159821 24,475 164 432 1664
2019-12-12 09:01:39 GMT 50.359955 -0.163060 24,350 164 432 1664
2019-12-12 09:01:36 GMT 50.367706 -0.166428 23,500 164 430 1344
2019-12-12 09:01:33 GMT 50.371674 -0.168120 24,225 164 430 1280
2019-12-12 09:01:29 GMT 50.379204 -0.171402 24,100 164 427 832
2019-12-12 09:01:26 GMT 50.385406 -0.174119 24,075 164 427 896
2019-12-12 09:01:23 GMT 50.391216 -0.176598 24,050 164 426 960
2019-12-12 09:01:20 GMT 50.396893 -0.179047 23,575 164 424 1088
2019-12-12 09:01:17 GMT 50.403877 -0.182091 23,875 164 423 1536
2019-12-12 09:01:14 GMT 50.407646 -0.183724 23,800 164 422 1664
2019-12-12 09:01:11 GMT 50.413742 -0.186334 23,775 164 422 1728
2019-12-12 09:01:08 GMT 50.419659 -0.188920 23,675 164 421 1728
2019-12-12 09:01:05 GMT 50.424454 -0.191032 23,475 163 419 960
2019-12-12 09:01:02 GMT 50.436951 -0.196597 23,500 163 419 960
2019-12-12 09:00:59 GMT 50.436951 -0.196597 23,275 162 411 1152
2019-12-12 09:00:56 GMT 50.440842 -0.198332 23,450 163 417 704
2019-12-12 09:00:53 GMT 50.448944 -0.202091 23,425 163 415 640
2019-12-12 09:00:50 GMT 50.453457 -0.204212 23,375 162 411 1344
2019-12-12 09:00:47 GMT 50.464417 -0.209680 23,125 159 398 1664
2019-12-12 09:00:44 GMT 50.464417 -0.209680 23,250 161 409 1472
2019-12-12 09:00:38 GMT 50.474304 -0.214884 23,150 161 410 1600
2019-12-12 09:00:35 GMT 50.480453 -0.218242 22,775 159 401 1600
2019-12-12 09:00:31 GMT 50.485764 -0.221285 22,825 159 408 1600
2019-12-12 09:00:28 GMT 50.491814 -0.224774 22,900 159 407 1536
2019-12-12 09:00:25 GMT 50.496376 -0.227447 22,775 159 407 1536
2019-12-12 09:00:22 GMT 50.503963 -0.231826 22,600 159 404 1472
2019-12-12 09:00:19 GMT 50.513168 -0.237146 22,575 159 403 1728
2019-12-12 09:00:13 GMT 50.519485 -0.240832 22,275 159 401 1728
2019-12-12 09:00:09 GMT 50.525757 -0.244446 22,300 159 401 1664
2019-12-12 09:00:06 GMT 50.530975 -0.247481 22,225 159 396 1856
2019-12-12 09:00:02 GMT 50.537483 -0.251275 22,150 159 399 1600
2019-12-12 08:59:59 GMT 50.542183 -0.253947 22,025 159 398 1664
2019-12-12 08:59:56 GMT 50.547455 -0.256950 22,025 159 398 1728
2019-12-12 08:59:52 GMT 50.556011 -0.261890 21,850 159 397 1856
2019-12-12 08:59:49 GMT 50.567322 -0.268497 21,650 159 396 1856
2019-12-12 08:59:46 GMT 50.567322 -0.268497 21,650 159 395 1856
2019-12-12 08:59:43 GMT 50.570766 -0.270501 21,600 159 395 1856
2019-12-12 08:59:40 GMT 50.574863 -0.272877 21,450 159 394 2112
2019-12-12 08:59:37 GMT 50.581196 -0.276588 21,400 159 394 2112
2019-12-12 08:59:34 GMT 50.586361 -0.279558 21,350 159 394 1920
2019-12-12 08:59:31 GMT 50.597069 -0.285793 21,150 159 393 1920
2019-12-12 08:59:28 GMT 50.597069 -0.285793 21,075 159 392 1920
2019-12-12 08:59:25 GMT 50.608200 -0.292294 20,900 159 391 1984
2019-12-12 08:59:21 GMT 50.608200 -0.292294 19,775 159 390 1920
2019-12-12 08:59:18 GMT 50.613785 -0.295547 20,750 159 390 1920
2019-12-12 08:59:15 GMT 50.619785 -0.299081 20,525 159 389 1920
2019-12-12 08:59:12 GMT 50.622997 -0.300936 20,550 159 389 1920
2019-12-12 08:59:09 GMT 50.627560 -0.303609 20,000 159 388 1920
2019-12-12 08:59:06 GMT 50.634567 -0.307689 20,375 159 388 1856
2019-12-12 08:59:02 GMT 50.641666 -0.311848 20,225 159 387 1856
2019-12-12 08:58:59 GMT 50.650372 -0.316896 20,125 159 386 1984
2019-12-12 08:58:56 GMT 50.650372 -0.316896 20,050 159 380 1728
2019-12-12 08:58:53 GMT 50.654984 -0.319615 19,950 159 384 2048
2019-12-12 08:58:50 GMT 50.659729 -0.322389 19,875 159 383 1856
2019-12-12 08:58:46 GMT 50.667114 -0.326626 19,725 159 382 1728
2019-12-12 08:58:43 GMT 50.676441 -0.332108 19,375 159 377 1920
2019-12-12 08:58:40 GMT 50.676441 -0.332108 19,550 159 380 1792
2019-12-12 08:58:37 GMT 50.682816 -0.335825 19,475 159 379 1856
2019-12-12 08:58:34 GMT 50.686169 -0.337753 19,450 159 378 1920
2019-12-12 08:58:31 GMT 50.692036 -0.341187 19,225 159 377 1920
2019-12-12 08:58:25 GMT 50.702324 -0.347214 18,625 159 367 2112
2019-12-12 08:58:22 GMT 50.707211 -0.350037 19,000 159 374 1856
2019-12-12 08:58:19 GMT 50.712158 -0.352973 18,900 159 373 1856
2019-12-12 08:58:15 GMT 50.718849 -0.356903 18,750 159 371 1920
2019-12-12 08:58:12 GMT 50.722061 -0.358734 18,700 159 370 1920
2019-12-12 08:58:09 GMT 50.726944 -0.361658 18,625 159 370 1920
2019-12-12 08:58:06 GMT 50.731750 -0.364479 18,500 159 368 2048
2019-12-12 08:58:03 GMT 50.737473 -0.367819 18,425 159 368 2048
2019-12-12 08:58:00 GMT 50.742279 -0.370640 18,275 159 367 2176
2019-12-12 08:57:57 GMT 50.746780 -0.373306 18,175 159 366 2176
2019-12-12 08:57:54 GMT 50.750599 -0.375519 17,675 159 365 2304
2019-12-12 08:57:51 GMT 50.760372 -0.381317 17,225 159 362 2176
2019-12-12 08:57:48 GMT 50.760372 -0.381317 17,700 159 363 2304
2019-12-12 08:57:45 GMT 50.770802 -0.387421 17,600 159 363 2240
2019-12-12 08:57:39 GMT 50.780914 -0.393355 17,250 159 353 1408
2019-12-12 08:57:36 GMT 50.780914 -0.393355 17,350 159 361 2176
2019-12-12 08:57:33 GMT 50.783890 -0.395137 17,275 159 360 2176
2019-12-12 08:57:30 GMT 50.787888 -0.397491 17,150 159 360 2176
2019-12-12 08:57:27 GMT 50.799545 -0.404267 16,975 159 359 2368
2019-12-12 08:57:23 GMT 50.799545 -0.404267 16,600 159 358 2240
2019-12-12 08:57:20 GMT 50.803436 -0.406494 16,575 159 359 2240
2019-12-12 08:57:17 GMT 50.809158 -0.409909 16,675 159 333 1088
2019-12-12 08:57:14 GMT 50.818844 -0.415497 16,450 159 356 1984
2019-12-12 08:57:11 GMT 50.818844 -0.415497 16,425 159 355 1664
2019-12-12 08:57:07 GMT 50.824894 -0.419006 16,350 159 354 1600
2019-12-12 08:57:04 GMT 50.828659 -0.421118 16,200 159 350 1152
2019-12-12 08:57:01 GMT 50.835068 -0.424829 16,125 159 347 1024
2019-12-12 08:56:58 GMT 50.839840 -0.427628 16,125 159 347 1024
2019-12-12 08:56:52 GMT 50.847752 -0.432129 16,050 159 340 896
2019-12-12 08:56:49 GMT 50.853058 -0.435181 15,975 159 336 960
2019-12-12 08:56:46 GMT 50.856133 -0.437012 15,925 159 333 1088
2019-12-12 08:56:43 GMT 50.861389 -0.440047 15,925 159 332 1088
2019-12-12 08:56:40 GMT 50.864136 -0.441606 15,875 159 323 1152
2019-12-12 08:56:37 GMT 50.870609 -0.445404 15,775 159 325 1152
2019-12-12 08:56:34 GMT 50.873402 -0.447006 15,750 159 323 1280
2019-12-12 08:56:31 GMT 50.876816 -0.449029 15,550 159 318 1664
2019-12-12 08:56:28 GMT 50.881596 -0.451813 15,550 159 318 1664
2019-12-12 08:56:25 GMT 50.886612 -0.454819 15,450 159 315 2240
2019-12-12 08:56:22 GMT 50.889977 -0.456772 15,400 159 314 2432
2019-12-12 08:56:18 GMT 50.895237 -0.459976 15,250 159 313 2368
2019-12-12 08:56:15 GMT 50.899982 -0.462875 15,075 158 311 2496
2019-12-12 08:56:12 GMT 50.903137 -0.464840 14,875 158 311 2560
2019-12-12 08:56:08 GMT 50.909527 -0.468750 14,450 158 311 2816
2019-12-12 08:56:05 GMT 50.913113 -0.470963 14,675 158 310 2880
2019-12-12 08:56:02 GMT 50.917740 -0.473823 14,450 158 310 3008
2019-12-12 08:55:59 GMT 50.922329 -0.476685 14,400 158 310 3008
2019-12-12 08:55:56 GMT 50.925682 -0.478821 14,200 158 311 2944
2019-12-12 08:55:53 GMT 50.928383 -0.480499 13,950 158 311 2944
2019-12-12 08:55:50 GMT 50.936417 -0.485625 13,775 157 311 3200
2019-12-12 08:55:44 GMT 50.941635 -0.488966 13,575 158 312 3200
2019-12-12 08:55:41 GMT 50.944393 -0.490723 13,350 158 312 3008
2019-12-12 08:55:38 GMT 50.948399 -0.493240 13,200 158 311 2048
2019-12-12 08:55:35 GMT 50.953171 -0.496315 13,050 158 312 2688
2019-12-12 08:55:32 GMT 50.956787 -0.498616 13,100 158 312 2496
2019-12-12 08:55:29 GMT 50.960129 -0.500769 12,875 158 309 1792
2019-12-12 08:55:26 GMT 50.965248 -0.503998 12,825 158 308 1536
2019-12-12 08:55:23 GMT 50.972607 -0.508575 12,650 158 304 1216
2019-12-12 08:55:20 GMT 50.972607 -0.508575 12,575 159 298 1280
2019-12-12 08:55:17 GMT 50.976517 -0.510941 12,550 160 293 1344
2019-12-12 08:55:14 GMT 50.980892 -0.513458 12,550 160 293 1344
2019-12-12 08:55:10 GMT 50.986012 -0.516281 12,475 162 289 1280
2019-12-12 08:55:07 GMT 50.989178 -0.517883 12,375 203 238 2304
2019-12-12 08:55:04 GMT 50.994019 -0.519791 12,375 169 277 896
2019-12-12 08:55:01 GMT 50.997574 -0.520589 12,325 175 268 896
2019-12-12 08:54:58 GMT 51.001423 -0.520782 12,275 182 261 960
2019-12-12 08:54:55 GMT 51.004944 -0.520440 12,200 189 251 1408
2019-12-12 08:54:52 GMT 51.008606 -0.519475 12,150 193 247 1664
2019-12-12 08:54:49 GMT 51.012081 -0.518036 10,775 196 244 1920
2019-12-12 08:54:46 GMT 51.014328 -0.516803 9,450 209 233 2688
2019-12-12 08:54:43 GMT 51.020370 -0.512126 11,725 215 229 2880
2019-12-12 08:54:40 GMT 51.020370 -0.512126 11,700 220 229 3648
2019-12-12 08:54:34 GMT 51.025349 -0.506592 11,225 221 223 1920
2019-12-12 08:54:31 GMT 51.027397 -0.503998 11,225 220 228 3456
2019-12-12 08:54:28 GMT 51.030167 -0.500398 10,950 220 230 3712
2019-12-12 08:54:25 GMT 51.033554 -0.496018 10,450 221 219 2496
2019-12-12 08:54:22 GMT 51.035110 -0.494014 10,775 220 232 3456
2019-12-12 08:54:19 GMT 51.037170 -0.491267 10,500 220 233 3392
2019-12-12 08:54:16 GMT 51.040199 -0.487289 10,350 220 233 3136
2019-12-12 08:54:13 GMT 51.042984 -0.483695 10,225 220 233 2944
2019-12-12 08:54:10 GMT 51.045914 -0.479835 10,025 220 232 2688
2019-12-12 08:54:06 GMT 51.047974 -0.477089 9,950 220 232 2560
2019-12-12 08:54:03 GMT 51.051605 -0.472183 9,675 221 231 2304
2019-12-12 08:54:00 GMT 51.053745 -0.469360 9,600 221 225 1856
2019-12-12 08:53:57 GMT 51.055893 -0.466548 9,575 221 227 1920
2019-12-12 08:53:54 GMT 51.058449 -0.463028 9,550 221 225 1856
2019-12-12 08:53:51 GMT 51.060497 -0.460281 9,375 221 222 2112
2019-12-12 08:53:48 GMT 51.063721 -0.455858 9,225 221 219 2560
2019-12-12 08:53:45 GMT 51.066036 -0.452728 8,825 222 217 2944
2019-12-12 08:53:42 GMT 51.067245 -0.451050 8,925 222 216 3200
2019-12-12 08:53:39 GMT 51.070450 -0.446579 8,900 222 216 3136
2019-12-12 08:53:36 GMT 51.071869 -0.444575 8,775 222 216 3328
2019-12-12 08:53:33 GMT 51.074249 -0.441160 8,525 223 216 3264
2019-12-12 08:53:30 GMT 51.076492 -0.437968 8,250 223 215 3072
2019-12-12 08:53:27 GMT 51.078690 -0.434777 8,250 223 215 3008
2019-12-12 08:53:23 GMT 51.081120 -0.431366 8,050 223 214 2752
2019-12-12 08:53:20 GMT 51.086052 -0.424118 7,775 223 212 2624
2019-12-12 08:53:17 GMT 51.086052 -0.424118 7,675 224 211 2624
2019-12-12 08:53:14 GMT 51.088196 -0.420914 7,425 224 209 2752
2019-12-12 08:53:10 GMT 51.090729 -0.417035 7,525 224 209 2752
2019-12-12 08:53:07 GMT 51.092709 -0.413971 7,275 225 207 3008
2019-12-12 08:53:04 GMT 51.094757 -0.410874 6,675 225 207 2944
2019-12-12 08:53:00 GMT 51.097878 -0.405884 6,800 226 205 3136
2019-12-12 08:52:57 GMT 51.099884 -0.402783 6,675 226 205 3136
2019-12-12 08:52:50 GMT 51.104347 -0.395508 6,300 227 203 3136
2019-12-12 08:52:47 GMT 51.106247 -0.392316 6,300 227 203 3200
2019-12-12 08:52:44 GMT 51.107986 -0.389347 5,725 228 203 3328
2019-12-12 08:52:41 GMT 51.110680 -0.384827 5,800 228 203 3328
2019-12-12 08:52:37 GMT 51.112701 -0.381255 5,575 229 203 3264
2019-12-12 08:52:34 GMT 51.114635 -0.377884 5,575 229 203 3264
2019-12-12 08:52:31 GMT 51.116264 -0.374985 5,425 230 202 2944
2019-12-12 08:52:28 GMT 51.118561 -0.370714 5,175 258 211 1472
2019-12-12 08:52:25 GMT 51.119751 -0.368413 4,925 258 211 1472
2019-12-12 08:52:22 GMT 51.123962 -0.358466 4,750 258 212 1472
2019-12-12 08:52:18 GMT 51.123962 -0.358466 4,775 247 207 1856
2019-12-12 08:52:15 GMT 51.124737 -0.355759 4,625 258 211 1472
2019-12-12 08:52:12 GMT 51.125793 -0.350746 4,450 258 212 1408
2019-12-12 08:52:08 GMT 51.127346 -0.340042 4,525 258 211 1472
2019-12-12 08:52:02 GMT 51.127991 -0.335454 4,325 258 211 1536
2019-12-12 08:51:58 GMT 51.128952 -0.328179 4,250 258 211 1536
2019-12-12 08:51:54 GMT 51.129673 -0.322800 4,175 258 210 1600
2019-12-12 08:51:50 GMT 51.130417 -0.317307 4,075 258 209 1792
2019-12-12 08:51:47 GMT 51.131210 -0.311432 3,950 258 209 1920
2019-12-12 08:51:44 GMT 51.131721 -0.307541 3,900 258 208 1984
2019-12-12 08:51:40 GMT 51.132431 -0.302198 3,425 258 208 1920
2019-12-12 08:51:36 GMT 51.133163 -0.296936 3,625 258 208 1920
2019-12-12 08:51:33 GMT 51.133804 -0.292177 3,575 258 208 1920
2019-12-12 08:51:29 GMT 51.134720 -0.285867 3,375 257 201 1792
2019-12-12 08:51:26 GMT 51.136047 -0.276588 3,250 257 207 2176
2019-12-12 08:51:19 GMT 51.136826 -0.271466 2,425 258 160 1664
2019-12-12 08:51:16 GMT 51.137512 -0.267012 2,975 257 196 1280
2019-12-12 08:51:13 GMT 51.138199 -0.262633 2,900 257 193 896
2019-12-12 08:51:08 GMT 51.139263 -0.255508 2,375 258 174 1536
2019-12-12 08:51:05 GMT 51.139847 -0.251424 2,775 257 181 1024
2019-12-12 08:51:02 GMT 51.140259 -0.248751 2,725 257 176 1536
2019-12-12 08:50:59 GMT 51.140945 -0.243926 2,600 258 169 1472
2019-12-12 08:50:56 GMT 51.141590 -0.239716 2,550 258 169 1472
2019-12-12 08:50:52 GMT 51.142101 -0.235901 2,525 258 166 1536
2019-12-12 08:50:48 GMT 51.142754 -0.231323 2,300 258 160 1664
2019-12-12 08:50:45 GMT 51.143280 -0.227595 2,325 259 156 2496
2019-12-12 08:50:42 GMT 51.143684 -0.224228 2,150 259 156 2496
2019-12-12 08:50:36 GMT 51.144653 -0.216832 1,725 259 156 3520
2019-12-12 08:50:33 GMT 51.145111 -0.213343 1,625 258 158 3392
2019-12-12 08:50:29 GMT 51.145660 -0.208889 1,375 259 160 3328
2019-12-12 08:50:24 GMT 51.146347 -0.203692 1,125 259 162 3136
2019-12-12 08:50:21 GMT 51.146851 -0.199890 975 259 163 2944
2019-12-12 08:50:13 GMT 51.148132 -0.190479 675 258 162 512
2019-12-12 08:50:05 GMT 51.149319 -0.181961 725 258 156 192
2019-12-12 08:50:02 GMT 51.149689 -0.179122 725 258 117 64
2019-12-12 08:49:51 GMT 51.150669 -0.171986 0 255 72
2019-12-12 08:49:42 GMT 51.151134 -0.168686 0 258 4
2019-12-12 08:49:38 GMT 51.151188 -0.168339 0 258 4
2019-12-12 08:49:31 GMT 51.151188 -0.168302 0 258 0
2019-12-12 08:49:15 GMT 51.151192 -0.168266 0 258 2
2019-12-12 08:49:09 GMT 51.151199 -0.168172 0 247 5
We lost coverage of the aircraft here for a total of 6 minutes
2019-12-12 08:42:52 GMT 51.152813 -0.168228 0 151 4
2019-12-12 08:42:45 GMT 51.152939 -0.168247 0 115 4
2019-12-12 08:42:32 GMT 51.152973 -0.168711 0 78 6
2019-12-12 08:42:24 GMT 51.152939 -0.168991 0 78 4
2019-12-12 08:40:03 GMT 51.152882 -0.169472 0 78 3
2019-12-12 08:39:53 GMT 51.152843 -0.169697 0 78 5
2019-12-12 08:39:48 GMT 51.152824 -0.169917 0 78 6
2019-12-12 08:39:42 GMT 51.152779 -0.170195 0 78 7
2019-12-12 08:39:31 GMT 51.152706 -0.170689 0 78 10
2019-12-12 08:39:18 GMT 51.152561 -0.171736 0 78 11
2019-12-12 08:38:58 GMT 51.152550 -0.173239 0 149 11
2019-12-12 08:38:37 GMT 51.153576 -0.173702 0 165 12
2019-12-12 08:38:34 GMT 51.153706 -0.173758 0 168 11
2019-12-12 08:38:21 GMT 51.154243 -0.173944 0 168 9
2019-12-12 08:38:12 GMT 51.154587 -0.174055 0 168 8
2019-12-12 08:38:00 GMT 51.154987 -0.174204 0 165 6
2019-12-12 08:37:44 GMT 51.155193 -0.174255 0 143 0
2019-12-12 08:37:21 GMT 51.155422 -0.174575 0 101 6
2019-12-12 08:37:12 GMT 51.155415 -0.174980 0 75 8
2019-12-12 08:36:59 GMT 51.155296 -0.175818 0 78 9
2019-12-12 08:36:52 GMT 51.155228 -0.176301 0 78 9
2019-12-12 08:36:40 GMT 51.155125 -0.177040 0 78 10
2019-12-12 08:36:31 GMT 51.155045 -0.177631 0 78 9
2019-12-12 08:36:21 GMT 51.154953 -0.178287 0 78 9
2019-12-12 08:36:09 GMT 51.154873 -0.178918 0 78 8
2019-12-12 08:35:59 GMT 51.154800 -0.179424 0 78 7
2019-12-12 08:35:51 GMT 51.154755 -0.179806 0 78 7
2019-12-12 08:35:41 GMT 51.154690 -0.180179 0 78 4
2019-12-12 08:35:38 GMT 51.154682 -0.180244 0 81 4
2019-12-12 08:35:25 GMT 51.154655 -0.180458 0 78 0
2019-12-12 08:35:10 GMT 51.154659 -0.180473 0 78 0
2019-12-12 08:34:41 GMT 51.154667 -0.180458 0 78 0
2019-12-12 08:34:26 GMT 51.154648 -0.180492 0 78 0
2019-12-12 08:34:16 GMT 51.154659 -0.180473 0 78 0
2019-12-12 08:34:01 GMT 51.154671 -0.180492 0 78 0
2019-12-12 08:33:55 GMT 51.154667 -0.180476 0 78 0
2019-12-12 08:33:41 GMT 51.154667 -0.180495 0 78 0
2019-12-12 08:33:38 GMT 51.154671 -0.180492 0 78 0
2019-12-12 08:33:35 GMT 51.154667 -0.180495 0 78 0
2019-12-12 08:33:31 GMT 51.154671 -0.180492 0 78 0
2019-12-12 08:33:24 GMT 51.154682 -0.180454 0 73 2
2019-12-12 08:33:20 GMT 51.154682 -0.180416 0 75 2
2019-12-12 08:33:08 GMT 51.154613 -0.180321 0 106 2
2019-12-12 08:33:03 GMT 51.154587 -0.180291 0 118 3
2019-12-12 08:32:57 GMT 51.154530 -0.180254 0 132 2
2019-12-12 08:32:51 GMT 51.154472 -0.180244 0 149 2
2019-12-12 08:32:41 GMT 51.154381 -0.180272 0 171 2
2019-12-12 08:32:31 GMT 51.154289 -0.180254 0 171 3
2019-12-12 08:32:19 GMT 51.154175 -0.180235 0 171 3

Making use of Plane Finder data

You are free to use the raw flight data, aircraft information and images provided in this report for your own purposes provided the data is correctly attributed to Plane Finder. We ask that you please credit Plane Finder and link to planefinder.net in close proximity to the content.

Optionally one of the following logos (no smaller then 150x24px) can be used and must link to planefinder.net

Embedding the Plane Finder map

You are welcome to embed the Plane Finder playback map on your website to offer visitors a more interactive experience. We suggest using the following HTML code:

<iframe src="//planefinder.net/data/report/U28221-G-EZWC-7700-squawk-2019-12-12/map" width="800" height="600" seamless="seamless"></iframe>

Where our data comes from

Plane Finder has a global network of data feeds and antenna radars that receive data broadcast directly from aircraft. The primary technologies used are ADS-B and MLAT. We also show feeds from the FAA and a FLARM glider feed.

Click here to find out more about the Plane Finder network.

How we collect our data